Time,TemperatureF,DewpointF,PressureIn,WindDirection,WindDirectionDegrees,WindSpeedMPH,WindSpeedGustMPH,Humidity,HourlyPrecipIn,Conditions,Clouds,dailyrainin,SoftwareType,DateUTC
2013-02-14 00:00:00,37.9,30.4,29.95,SW,222,4.4,7.6,74,0.00,,CLR,0.00,VWS V14.01,2013-02-14 06:00:00,
2013-02-14 00:02:00,37.8,30.2,29.95,SW,221,3.9,7.6,74,0.00,,OVC017,0.00,VWS V14.01,2013-02-14 06:02:00,
2013-02-14 00:04:00,37.8,30.2,29.95,SSW,210,7.8,8.1,74,0.00,,OVC017,0.00,VWS V14.01,2013-02-14 06:04:00,
2013-02-14 00:05:00,37.8,30.2,29.95,SSW,213,6.1,8.1,74,0.00,,CLR,0.00,VWS V14.01,2013-02-14 06:05:00,
2013-02-14 00:06:00,37.8,30.2,29.95,WSW,238,5.0,8.1,74,0.00,,OVC017,0.00,VWS V14.01,2013-02-14 06:06:00,
2013-02-14 00:08:00,37.8,30.2,29.95,WSW,238,7.2,7.6,74,0.00,,OVC017,0.00,VWS V14.01,2013-02-14 06:08:00,
2013-02-14 00:10:00,37.8,30.2,29.95,SW,215,5.0,8.1,74,0.00,,CLR,0.00,VWS V14.01,2013-02-14 06:10:00,
2013-02-14 00:12:00,37.8,30.2,29.95,SW,222,4.4,7.6,74,0.00,,OVC017,0.00,VWS V14.01,2013-02-14 06:12:00,
2013-02-14 00:14:00,37.8,30.2,29.95,SSW,208,4.4,5.2,74,0.00,,OVC017,0.00,VWS V14.01,2013-02-14 06:14:00,
2013-02-14 00:15:00,37.6,30.0,29.95,SSW,204,4.4,7.6,74,0.00,,CLR,0.00,VWS V14.01,2013-02-14 06:15:00,
2013-02-14 00:16:00,37.6,30.0,29.95,SSW,205,3.9,7.6,74,0.00,,OVC017,0.00,VWS V14.01,2013-02-14 06:16:00,
2013-02-14 00:18:00,37.6,30.0,29.95,SW,216,6.7,7.0,74,0.00,,OVC017,0.00,VWS V14.01,2013-02-14 06:18:00,
2013-02-14 00:20:00,37.6,30.0,29.95,SW,221,4.4,6.4,74,0.00,,CLR,0.00,VWS V14.01,2013-02-14 06:20:00,
2013-02-14 00:22:00,37.6,30.0,29.95,SW,225,6.1,6.4,74,0.00,,OVC017,0.00,VWS V14.01,2013-02-14 06:22:00,
2013-02-14 00:24:00,37.4,29.9,29.95,SW,214,3.9,6.4,74,0.00,,OVC017,0.00,VWS V14.01,2013-02-14 06:24:00,
2013-02-14 00:25:00,37.4,29.9,29.98,SW,225,4.4,5.8,74,0.00,,CLR,0.00,VWS V14.01,2013-02-14 06:25:00,
2013-02-14 00:26:00,37.4,29.9,29.98,SW,224,3.3,5.2,74,0.00,,OVC017,0.00,VWS V14.01,2013-02-14 06:26:00,
2013-02-14 00:28:00,37.4,29.9,29.98,SW,228,5.0,8.1,74,0.00,,OVC017,0.00,VWS V14.01,2013-02-14 06:28:00,
2013-02-14 00:30:00,37.4,29.9,29.98,SW,224,4.4,8.7,74,0.00,,CLR,0.00,VWS V14.01,2013-02-14 06:30:00,
2013-02-14 00:32:00,37.4,30.3,29.98,WSW,238,4.4,6.4,75,0.00,,OVC017,0.00,VWS V14.01,2013-02-14 06:32:00,
2013-02-14 00:34:00,37.4,30.3,29.98,SW,222,4.4,6.4,75,0.00,,OVC017,0.00,VWS V14.01,2013-02-14 06:34:00,
2013-02-14 00:35:00,37.4,30.3,29.98,SW,220,5.0,6.4,75,0.00,,CLR,0.00,VWS V14.01,2013-02-14 06:35:00,
2013-02-14 00:36:00,37.4,30.3,29.98,SW,229,5.0,6.4,75,0.00,,OVC017,0.00,VWS V14.01,2013-02-14 06:36:00,
2013-02-14 00:38:00,37.4,30.3,29.98,SW,220,7.8,8.1,75,0.00,,OVC017,0.00,VWS V14.01,2013-02-14 06:38:00,
2013-02-14 00:40:00,37.4,30.3,29.95,SW,217,6.7,7.0,75,0.00,,CLR,0.00,VWS V14.01,2013-02-14 06:40:00,
2013-02-14 00:42:00,37.4,30.3,29.95,SW,217,5.0,7.0,75,0.00,,OVC017,0.00,VWS V14.01,2013-02-14 06:42:00,
2013-02-14 00:44:00,37.4,30.3,29.95,SW,227,5.0,5.2,75,0.00,,OVC017,0.00,VWS V14.01,2013-02-14 06:44:00,
2013-02-14 00:45:00,37.4,30.3,29.95,SW,233,7.8,8.1,75,0.00,,CLR,0.00,VWS V14.01,2013-02-14 06:45:00,
2013-02-14 00:46:00,37.4,30.3,29.95,SW,235,6.7,8.1,75,0.00,,OVC017,0.00,VWS V14.01,2013-02-14 06:46:00,
2013-02-14 00:48:00,37.4,30.3,29.95,SW,225,5.0,7.0,75,0.00,,OVC017,0.00,VWS V14.01,2013-02-14 06:48:00,
2013-02-14 00:50:00,37.4,30.3,29.95,SW,217,5.5,7.0,75,0.00,,CLR,0.00,VWS V14.01,2013-02-14 06:50:00,
2013-02-14 00:52:00,37.4,30.3,29.95,SW,225,3.9,5.8,75,0.00,,OVC017,0.00,VWS V14.01,2013-02-14 06:52:00,
2013-02-14 00:54:00,37.2,30.1,29.95,WSW,238,5.0,5.2,75,0.00,,OVC017,0.00,VWS V14.01,2013-02-14 06:54:00,
2013-02-14 00:56:00,37.0,29.9,29.98,SW,218,3.3,5.2,75,0.00,,CLR,0.00,VWS V14.01,2013-02-14 06:56:00,
2013-02-14 00:58:00,36.9,29.8,29.98,WSW,248,3.9,4.7,75,0.00,,OVC017,0.00,VWS V14.01,2013-02-14 06:58:00,
2013-02-14 01:00:00,36.7,29.6,29.98,WSW,243,3.9,4.7,75,0.00,,OVC017,0.00,VWS V14.01,2013-02-14 07:00:00,
2013-02-14 01:01:00,36.7,29.6,29.98,WSW,243,3.3,4.7,75,0.00,,CLR,0.00,VWS V14.01,2013-02-14 07:01:00,
2013-02-14 01:02:00,36.5,29.4,29.98,SW,235,3.3,4.7,75,0.00,,OVC017,0.00,VWS V14.01,2013-02-14 07:02:00,
2013-02-14 01:04:00,36.3,29.2,29.98,SW,229,3.9,4.7,75,0.00,,OVC017,0.00,VWS V14.01,2013-02-14 07:04:00,
2013-02-14 01:06:00,36.3,29.2,29.98,WSW,238,3.9,5.2,75,0.00,,CLR,0.00,VWS V14.01,2013-02-14 07:06:00,
2013-02-14 01:08:00,36.1,29.1,29.98,SSW,211,4.4,5.8,75,0.00,,OVC017,0.00,VWS V14.01,2013-02-14 07:08:00,
2013-02-14 01:10:00,36.1,29.1,29.98,SSW,208,5.0,5.2,75,0.00,,OVC017,0.00,VWS V14.01,2013-02-14 07:10:00,
2013-02-14 01:11:00,36.1,29.1,29.98,SSW,209,3.9,5.2,75,0.00,,CLR,0.00,VWS V14.01,2013-02-14 07:11:00,
2013-02-14 01:12:00,36.1,29.1,29.98,SW,218,3.9,5.2,75,0.00,,OVC017,0.00,VWS V14.01,2013-02-14 07:12:00,
2013-02-14 01:14:00,36.1,29.1,29.98,SW,218,4.4,5.2,75,0.00,,OVC017,0.00,VWS V14.01,2013-02-14 07:14:00,
2013-02-14 01:16:00,36.0,28.9,29.98,SW,220,4.4,4.7,75,0.00,,CLR,0.00,VWS V14.01,2013-02-14 07:16:00,
2013-02-14 01:18:00,36.0,28.9,29.98,SSW,211,3.3,5.2,75,0.00,,OVC017,0.00,VWS V14.01,2013-02-14 07:18:00,
2013-02-14 01:20:00,35.8,28.7,29.98,SSW,208,3.9,6.4,75,0.00,,OVC017,0.00,VWS V14.01,2013-02-14 07:20:00,
2013-02-14 01:21:00,35.8,28.7,29.98,SSW,213,3.3,6.4,75,0.00,,CLR,0.00,VWS V14.01,2013-02-14 07:21:00,
2013-02-14 01:22:00,35.8,28.7,29.98,SSW,208,2.8,5.2,75,0.00,,OVC017,0.00,VWS V14.01,2013-02-14 07:22:00,
2013-02-14 01:24:00,35.8,29.1,29.98,SW,218,3.3,5.2,77,0.00,,OVC017,0.00,VWS V14.01,2013-02-14 07:24:00,
2013-02-14 01:26:00,35.8,29.1,29.98,SW,218,3.3,7.6,77,0.00,,CLR,0.00,VWS V14.01,2013-02-14 07:26:00,
2013-02-14 01:28:00,35.8,29.1,29.98,SW,216,4.4,8.1,77,0.00,,OVC017,0.00,VWS V14.01,2013-02-14 07:28:00,
2013-02-14 01:30:00,35.8,29.1,29.98,SSW,213,3.9,6.4,77,0.00,,OVC017,0.00,VWS V14.01,2013-02-14 07:30:00,
2013-02-14 01:31:00,36.0,29.3,29.98,SSW,212,5.0,5.2,77,0.00,,CLR,0.00,VWS V14.01,2013-02-14 07:31:00,
2013-02-14 01:32:00,36.0,29.7,29.98,SSW,204,4.4,5.2,78,0.00,,OVC017,0.00,VWS V14.01,2013-02-14 07:32:00,
2013-02-14 01:34:00,36.1,29.9,29.98,SSW,199,3.9,7.0,78,0.00,,OVC017,0.00,VWS V14.01,2013-02-14 07:34:00,
2013-02-14 01:36:00,36.1,29.9,29.98,SW,223,7.2,7.6,78,0.00,,CLR,0.00,VWS V14.01,2013-02-14 07:36:00,
2013-02-14 01:38:00,36.1,29.9,29.98,SW,221,5.0,7.6,78,0.00,,OVC017,0.00,VWS V14.01,2013-02-14 07:38:00,
2013-02-14 01:40:00,36.3,30.1,29.98,SSW,201,6.1,6.4,78,0.00,,OVC017,0.00,VWS V14.01,2013-02-14 07:40:00,
2013-02-14 01:41:00,36.3,30.1,29.98,SSW,211,5.5,6.4,78,0.00,,CLR,0.00,VWS V14.01,2013-02-14 07:41:00,
2013-02-14 01:42:00,36.3,30.1,29.98,SSW,206,5.0,6.4,78,0.00,,OVC017,0.00,VWS V14.01,2013-02-14 07:42:00,
2013-02-14 01:44:00,36.3,30.1,29.98,SSW,207,3.3,5.8,78,0.00,,OVC017,0.00,VWS V14.01,2013-02-14 07:44:00,
2013-02-14 01:46:00,36.3,30.1,29.98,SSW,213,4.4,6.4,78,0.00,,CLR,0.00,VWS V14.01,2013-02-14 07:46:00,
2013-02-14 01:48:00,36.3,30.5,29.98,SW,229,3.9,6.4,79,0.00,,OVC017,0.00,VWS V14.01,2013-02-14 07:48:00,
2013-02-14 01:50:00,36.3,30.5,29.98,SW,222,5.0,7.0,79,0.00,,OVC017,0.00,VWS V14.01,2013-02-14 07:50:00,
2013-02-14 01:51:00,36.3,30.5,29.98,SW,225,4.4,7.0,79,0.00,,CLR,0.00,VWS V14.01,2013-02-14 07:51:00,
2013-02-14 01:52:00,36.3,30.5,29.98,SW,225,3.9,6.4,79,0.00,,OVC017,0.00,VWS V14.01,2013-02-14 07:52:00,
2013-02-14 01:54:00,36.3,30.1,29.98,SW,221,5.0,5.2,78,0.00,,OVC017,0.00,VWS V14.01,2013-02-14 07:54:00,
2013-02-14 01:56:00,36.3,30.1,29.98,SW,224,3.9,6.4,78,0.00,,CLR,0.00,VWS V14.01,2013-02-14 07:56:00,
2013-02-14 01:58:00,36.3,30.1,29.98,SW,224,3.9,5.2,78,0.00,,OVC017,0.00,VWS V14.01,2013-02-14 07:58:00,
2013-02-14 02:00:00,36.3,30.5,29.98,SW,227,3.9,5.2,79,0.00,,OVC017,0.00,VWS V14.01,2013-02-14 08:00:00,
2013-02-14 02:01:00,36.3,30.5,29.98,SW,216,3.3,5.2,79,0.00,,CLR,0.00,VWS V14.01,2013-02-14 08:01:00,
2013-02-14 02:02:00,36.3,30.5,29.98,SW,217,3.3,5.2,79,0.00,,OVC017,0.00,VWS V14.01,2013-02-14 08:02:00,
2013-02-14 02:04:00,36.1,30.3,29.98,SSW,212,4.4,7.0,79,0.00,,OVC017,0.00,VWS V14.01,2013-02-14 08:04:00,
2013-02-14 02:06:00,36.1,30.3,29.98,SW,220,4.4,7.0,79,0.00,,CLR,0.00,VWS V14.01,2013-02-14 08:06:00,
2013-02-14 02:08:00,36.1,30.3,29.98,SW,233,5.0,7.0,79,0.00,,OVC017,0.00,VWS V14.01,2013-02-14 08:08:00,
2013-02-14 02:10:00,36.1,30.3,29.98,SW,226,6.1,7.0,79,0.00,,OVC017,0.00,VWS V14.01,2013-02-14 08:10:00,
2013-02-14 02:11:00,36.1,30.3,29.98,SW,225,5.0,7.0,79,0.00,,CLR,0.00,VWS V14.01,2013-02-14 08:11:00,
2013-02-14 02:12:00,36.1,30.3,29.98,SW,233,5.0,6.4,79,0.00,,OVC017,0.00,VWS V14.01,2013-02-14 08:12:00,
2013-02-14 02:14:00,36.1,30.3,29.98,WSW,242,5.0,6.4,79,0.00,,OVC017,0.00,VWS V14.01,2013-02-14 08:14:00,
2013-02-14 02:16:00,36.1,30.3,29.98,SW,215,5.0,5.2,79,0.00,,CLR,0.00,VWS V14.01,2013-02-14 08:16:00,
2013-02-14 02:18:00,36.1,30.3,29.98,SW,222,4.4,5.8,79,0.00,,OVC017,0.00,VWS V14.01,2013-02-14 08:18:00,
2013-02-14 02:20:00,36.0,30.1,29.98,SW,233,6.7,7.0,79,0.00,,OVC017,0.00,VWS V14.01,2013-02-14 08:20:00,
2013-02-14 02:21:00,36.0,30.1,29.98,SW,224,4.4,7.0,79,0.00,,CLR,0.00,VWS V14.01,2013-02-14 08:21:00,
2013-02-14 02:22:00,36.0,30.1,29.98,SW,224,5.0,7.0,79,0.00,,OVC017,0.00,VWS V14.01,2013-02-14 08:22:00,
2013-02-14 02:24:00,35.8,30.0,29.98,WSW,237,4.4,6.4,79,0.00,,OVC017,0.00,VWS V14.01,2013-02-14 08:24:00,
2013-02-14 02:26:00,35.8,30.0,29.98,SW,225,3.9,4.7,79,0.00,,CLR,0.00,VWS V14.01,2013-02-14 08:26:00,
2013-02-14 02:28:00,35.6,29.8,29.98,SW,229,3.3,4.7,79,0.00,,OVC017,0.00,VWS V14.01,2013-02-14 08:28:00,
2013-02-14 02:30:00,35.6,29.8,29.98,SW,216,4.4,4.7,79,0.00,,OVC017,0.00,VWS V14.01,2013-02-14 08:30:00,
2013-02-14 02:31:00,35.4,29.6,29.98,SSW,211,3.9,5.2,79,0.00,,CLR,0.00,VWS V14.01,2013-02-14 08:31:00,
2013-02-14 02:32:00,35.4,29.6,29.98,SSW,210,2.8,5.2,79,0.00,,OVC017,0.00,VWS V14.01,2013-02-14 08:32:00,
2013-02-14 02:34:00,35.2,29.5,29.98,SSW,204,3.9,5.2,79,0.00,,OVC017,0.00,VWS V14.01,2013-02-14 08:34:00,
2013-02-14 02:36:00,35.1,29.3,29.98,SSW,202,3.3,5.2,79,0.00,,OVC017,0.00,VWS V14.01,2013-02-14 08:36:00,
2013-02-14 02:37:00,35.1,29.3,29.98,SSW,209,2.8,5.2,79,0.00,,CLR,0.00,VWS V14.01,2013-02-14 08:37:00,
2013-02-14 02:38:00,35.1,29.3,29.98,SW,216,5.0,5.2,79,0.00,,OVC017,0.00,VWS V14.01,2013-02-14 08:38:00,
2013-02-14 02:40:00,35.1,29.7,29.98,SW,214,4.4,5.2,81,0.00,,OVC017,0.00,VWS V14.01,2013-02-14 08:40:00,
2013-02-14 02:42:00,35.1,29.7,29.98,SW,220,4.4,5.2,81,0.00,,CLR,0.00,VWS V14.01,2013-02-14 08:42:00,
2013-02-14 02:44:00,35.1,29.7,29.98,SW,223,3.9,5.2,81,0.00,,OVC017,0.00,VWS V14.01,2013-02-14 08:44:00,
2013-02-14 02:46:00,35.1,29.7,29.98,SW,223,3.9,5.2,81,0.00,,OVC017,0.00,VWS V14.01,2013-02-14 08:46:00,
2013-02-14 02:47:00,35.1,29.7,29.98,SW,218,3.9,5.2,81,0.00,,CLR,0.00,VWS V14.01,2013-02-14 08:47:00,
2013-02-14 02:48:00,35.1,29.7,29.98,SW,220,5.0,8.1,81,0.00,,OVC017,0.00,VWS V14.01,2013-02-14 08:48:00,
2013-02-14 02:50:00,35.2,29.9,29.98,SW,225,5.0,5.2,81,0.00,,OVC017,0.00,VWS V14.01,2013-02-14 08:50:00,
2013-02-14 02:52:00,35.4,30.0,29.98,SSW,209,4.4,7.6,81,0.00,,CLR,0.00,VWS V14.01,2013-02-14 08:52:00,
2013-02-14 02:54:00,35.4,30.4,29.98,SSW,204,6.1,6.4,82,0.00,,OVC017,0.00,VWS V14.01,2013-02-14 08:54:00,
2013-02-14 02:56:00,35.4,30.0,29.98,SSW,208,5.0,6.4,81,0.00,,OVC017,0.00,VWS V14.01,2013-02-14 08:56:00,
2013-02-14 02:57:00,35.4,30.0,29.98,SW,217,4.4,5.2,81,0.00,,CLR,0.00,VWS V14.01,2013-02-14 08:57:00,
2013-02-14 02:58:00,35.4,30.0,29.98,SSW,203,4.4,5.2,81,0.00,,OVC017,0.00,VWS V14.01,2013-02-14 08:58:00,
2013-02-14 03:00:00,35.4,30.0,29.98,SW,235,3.9,6.4,81,0.00,,OVC017,0.00,VWS V14.01,2013-02-14 09:00:00,
2013-02-14 03:02:00,35.4,30.0,29.98,SW,220,3.3,5.2,81,0.00,,CLR,0.00,VWS V14.01,2013-02-14 09:02:00,
2013-02-14 03:04:00,35.4,30.0,29.98,SW,229,3.9,5.2,81,0.00,,OVC017,0.00,VWS V14.01,2013-02-14 09:04:00,
2013-02-14 03:06:00,35.2,29.9,29.98,SW,224,3.9,5.2,81,0.00,,OVC017,0.00,VWS V14.01,2013-02-14 09:06:00,
2013-02-14 03:07:00,35.2,29.9,29.98,SW,221,4.4,5.2,81,0.00,,CLR,0.00,VWS V14.01,2013-02-14 09:07:00,
2013-02-14 03:08:00,35.2,29.9,29.98,SSW,208,5.0,5.2,81,0.00,,OVC017,0.00,VWS V14.01,2013-02-14 09:08:00,
2013-02-14 03:10:00,35.2,30.3,29.98,SSW,207,2.8,5.2,82,0.00,,OVC017,0.00,VWS V14.01,2013-02-14 09:10:00,
2013-02-14 03:12:00,35.2,30.3,29.98,SSW,213,2.8,5.2,82,0.00,,CLR,0.00,VWS V14.01,2013-02-14 09:12:00,
2013-02-14 03:14:00,35.1,30.1,29.98,SW,223,3.3,3.5,82,0.00,,OVC017,0.00,VWS V14.01,2013-02-14 09:14:00,
2013-02-14 03:16:00,35.1,29.7,29.98,SW,217,4.4,5.2,81,0.00,,OVC017,0.00,VWS V14.01,2013-02-14 09:16:00,
2013-02-14 03:17:00,35.1,29.7,29.98,SSW,205,3.3,5.2,81,0.00,,CLR,0.00,VWS V14.01,2013-02-14 09:17:00,
2013-02-14 03:18:00,35.1,29.7,29.98,SSW,212,5.0,5.2,81,0.00,,OVC017,0.00,VWS V14.01,2013-02-14 09:18:00,
2013-02-14 03:20:00,34.9,29.5,29.98,SW,219,4.4,5.2,81,0.00,,OVC017,0.00,VWS V14.01,2013-02-14 09:20:00,
2013-02-14 03:22:00,34.7,29.3,29.98,SSW,194,3.3,5.2,81,0.00,,CLR,0.00,VWS V14.01,2013-02-14 09:22:00,
2013-02-14 03:24:00,34.7,29.7,29.98,SW,222,4.4,5.2,82,0.00,,OVC017,0.00,VWS V14.01,2013-02-14 09:24:00,
2013-02-14 03:26:00,34.7,29.7,29.98,SW,218,0.0,5.2,82,0.00,,OVC017,0.00,VWS V14.01,2013-02-14 09:26:00,
2013-02-14 03:27:00,34.5,29.5,29.98,SW,221,3.9,4.7,82,0.00,,CLR,0.00,VWS V14.01,2013-02-14 09:27:00,
2013-02-14 03:28:00,34.5,29.5,29.98,SW,224,5.0,5.2,82,0.00,,OVC017,0.00,VWS V14.01,2013-02-14 09:28:00,
2013-02-14 03:30:00,34.5,29.5,29.98,SW,223,3.9,5.2,82,0.00,,OVC017,0.00,VWS V14.01,2013-02-14 09:30:00,
2013-02-14 03:32:00,34.3,29.4,29.98,SW,219,0.0,4.7,82,0.00,,CLR,0.00,VWS V14.01,2013-02-14 09:32:00,
2013-02-14 03:34:00,34.3,29.4,29.98,SW,219,0.0,0.0,82,0.00,,OVC017,0.00,VWS V14.01,2013-02-14 09:34:00,
2013-02-14 03:36:00,34.2,29.2,29.98,SW,218,3.3,4.1,82,0.00,,OVC017,0.00,VWS V14.01,2013-02-14 09:36:00,
2013-02-14 03:37:00,34.2,29.2,29.98,SW,217,2.8,4.7,82,0.00,,CLR,0.00,VWS V14.01,2013-02-14 09:37:00,
2013-02-14 03:38:00,34.2,29.2,29.98,SW,217,0.0,4.7,82,0.00,,OVC017,0.00,VWS V14.01,2013-02-14 09:38:00,
2013-02-14 03:40:00,34.2,29.2,29.98,SSW,208,4.4,5.2,82,0.00,,OVC017,0.00,VWS V14.01,2013-02-14 09:40:00,
2013-02-14 03:42:00,34.0,29.0,29.98,SW,217,3.9,4.7,82,0.00,,CLR,0.00,VWS V14.01,2013-02-14 09:42:00,
2013-02-14 03:44:00,34.0,29.0,29.98,SSW,213,5.0,5.2,82,0.00,,OVC017,0.00,VWS V14.01,2013-02-14 09:44:00,
2013-02-14 03:46:00,33.8,28.9,29.98,SSW,211,3.9,5.2,82,0.00,,OVC017,0.00,VWS V14.01,2013-02-14 09:46:00,
2013-02-14 03:47:00,33.8,28.9,29.98,SSW,208,5.0,5.2,82,0.00,,CLR,0.00,VWS V14.01,2013-02-14 09:47:00,
2013-02-14 03:48:00,33.8,28.9,29.98,SSW,205,2.8,5.2,82,0.00,,OVC017,0.00,VWS V14.01,2013-02-14 09:48:00,
2013-02-14 03:50:00,33.6,28.7,29.98,SW,222,5.0,6.4,82,0.00,,OVC017,0.00,VWS V14.01,2013-02-14 09:50:00,
2013-02-14 03:52:00,33.6,28.7,29.98,SSW,206,3.9,6.4,82,0.00,,CLR,0.00,VWS V14.01,2013-02-14 09:52:00,
2013-02-14 03:54:00,33.6,28.7,29.98,SSW,211,4.4,7.0,82,0.00,,OVC017,0.00,VWS V14.01,2013-02-14 09:54:00,
2013-02-14 03:56:00,33.6,29.1,29.98,SSW,203,3.9,6.4,83,0.00,,OVC017,0.00,VWS V14.01,2013-02-14 09:56:00,
2013-02-14 03:57:00,33.8,29.2,29.98,SSW,193,6.1,6.4,83,0.00,,CLR,0.00,VWS V14.01,2013-02-14 09:57:00,
2013-02-14 03:58:00,33.8,29.2,29.98,SSW,209,6.1,6.4,83,0.00,,OVC017,0.00,VWS V14.01,2013-02-14 09:58:00,
2013-02-14 04:00:00,33.8,29.2,29.98,SSW,204,3.3,6.4,83,0.00,,OVC017,0.00,VWS V14.01,2013-02-14 10:00:00,
2013-02-14 04:02:00,34.0,29.4,29.98,SW,217,6.7,7.0,83,0.00,,CLR,0.00,VWS V14.01,2013-02-14 10:02:00,
2013-02-14 04:04:00,34.0,29.4,29.98,SW,232,4.4,7.0,83,0.00,,OVC017,0.00,VWS V14.01,2013-02-14 10:04:00,
2013-02-14 04:06:00,34.0,29.4,29.98,South,191,5.0,5.2,83,0.00,,OVC017,0.00,VWS V14.01,2013-02-14 10:06:00,
2013-02-14 04:07:00,34.0,29.4,29.98,SW,227,5.5,5.8,83,0.00,,CLR,0.00,VWS V14.01,2013-02-14 10:07:00,
2013-02-14 04:08:00,34.0,29.4,29.98,SSW,197,4.4,5.8,83,0.00,,OVC017,0.00,VWS V14.01,2013-02-14 10:08:00,
2013-02-14 04:10:00,34.2,29.6,29.98,SW,218,5.0,7.6,83,0.00,,OVC017,0.00,VWS V14.01,2013-02-14 10:10:00,
2013-02-14 04:12:00,34.3,30.2,29.98,SSW,206,4.4,7.0,84,0.00,,CLR,0.00,VWS V14.01,2013-02-14 10:12:00,
2013-02-14 04:14:00,34.3,30.2,29.98,SW,217,5.0,5.2,84,0.00,,OVC017,0.00,VWS V14.01,2013-02-14 10:14:00,
2013-02-14 04:16:00,34.3,30.2,29.98,SW,215,5.0,8.1,84,0.00,,OVC017,0.00,VWS V14.01,2013-02-14 10:16:00,
2013-02-14 04:17:00,34.3,30.2,29.98,SSW,208,4.4,8.1,84,0.00,,CLR,0.00,VWS V14.01,2013-02-14 10:17:00,
2013-02-14 04:18:00,34.5,30.3,29.98,SSW,198,4.4,7.0,84,0.00,,OVC017,0.00,VWS V14.01,2013-02-14 10:18:00,
2013-02-14 04:20:00,34.5,30.3,29.98,SSW,206,4.4,8.1,84,0.00,,OVC017,0.00,VWS V14.01,2013-02-14 10:20:00,
2013-02-14 04:22:00,34.5,30.7,29.98,SSW,201,4.4,8.1,86,0.00,,CLR,0.00,VWS V14.01,2013-02-14 10:22:00,
2013-02-14 04:24:00,34.7,30.9,29.98,SSW,203,5.0,8.1,86,0.00,,OVC017,0.00,VWS V14.01,2013-02-14 10:24:00,
2013-02-14 04:26:00,34.7,30.9,29.98,SSE,154,6.7,7.6,86,0.00,,OVC017,0.00,VWS V14.01,2013-02-14 10:26:00,
2013-02-14 04:27:00,34.7,30.9,29.98,SSW,206,4.4,7.6,86,0.00,,CLR,0.00,VWS V14.01,2013-02-14 10:27:00,
2013-02-14 04:28:00,34.7,30.9,29.98,SSW,213,4.4,7.6,86,0.00,,OVC017,0.00,VWS V14.01,2013-02-14 10:28:00,
2013-02-14 04:30:00,34.9,31.1,29.98,SSW,210,5.0,7.0,86,0.00,,OVC017,0.00,VWS V14.01,2013-02-14 10:30:00,
2013-02-14 04:32:00,34.9,31.1,29.98,South,182,4.4,5.8,86,0.00,,CLR,0.00,VWS V14.01,2013-02-14 10:32:00,
2013-02-14 04:34:00,34.9,31.1,29.98,SSW,194,4.4,7.0,86,0.00,,OVC017,0.00,VWS V14.01,2013-02-14 10:34:00,
2013-02-14 04:36:00,34.9,31.1,29.98,SSW,205,6.7,7.0,86,0.00,,OVC017,0.00,VWS V14.01,2013-02-14 10:36:00,
2013-02-14 04:37:00,34.9,31.1,29.98,SSW,212,5.0,7.6,86,0.00,,CLR,0.00,VWS V14.01,2013-02-14 10:37:00,
2013-02-14 04:38:00,34.9,31.1,29.98,SW,218,5.0,7.6,86,0.00,,OVC017,0.00,VWS V14.01,2013-02-14 10:38:00,
2013-02-14 04:40:00,35.1,31.2,29.95,SSW,197,5.0,8.1,86,0.00,,OVC017,0.00,VWS V14.01,2013-02-14 10:40:00,
2013-02-14 04:42:00,35.1,31.2,29.95,SSW,213,5.0,7.6,86,0.00,,CLR,0.00,VWS V14.01,2013-02-14 10:42:00,
2013-02-14 04:44:00,35.1,31.2,29.95,SW,225,7.2,7.6,86,0.00,,OVC017,0.00,VWS V14.01,2013-02-14 10:44:00,
2013-02-14 04:46:00,35.1,31.2,29.95,SW,224,4.4,7.6,86,0.00,,OVC017,0.00,VWS V14.01,2013-02-14 10:46:00,
2013-02-14 04:47:00,35.1,31.2,29.95,SSW,198,3.9,7.6,86,0.00,,CLR,0.00,VWS V14.01,2013-02-14 10:47:00,
2013-02-14 04:48:00,35.1,31.2,29.95,SSW,208,5.0,7.6,86,0.00,,OVC017,0.00,VWS V14.01,2013-02-14 10:48:00,
2013-02-14 04:50:00,35.1,31.2,29.95,SSW,205,6.1,7.0,86,0.00,,OVC017,0.00,VWS V14.01,2013-02-14 10:50:00,
2013-02-14 04:52:00,35.1,31.2,29.95,SW,218,4.4,7.0,86,0.00,,CLR,0.00,VWS V14.01,2013-02-14 10:52:00,
2013-02-14 04:54:00,35.1,31.2,29.95,SW,221,3.3,7.0,86,0.00,,OVC017,0.00,VWS V14.01,2013-02-14 10:54:00,
2013-02-14 04:56:00,35.1,31.2,29.95,South,191,3.3,4.7,86,0.00,,OVC017,0.00,VWS V14.01,2013-02-14 10:56:00,
2013-02-14 04:57:00,35.1,31.2,29.95,SW,222,4.4,5.2,86,0.00,,CLR,0.00,VWS V14.01,2013-02-14 10:57:00,
2013-02-14 04:58:00,35.1,31.2,29.95,SSW,210,6.1,6.4,86,0.00,,OVC017,0.00,VWS V14.01,2013-02-14 10:58:00,
2013-02-14 05:00:00,35.1,31.2,29.95,SW,218,6.1,7.6,86,0.00,,OVC017,0.00,VWS V14.01,2013-02-14 11:00:00,
2013-02-14 05:02:00,34.9,31.1,29.95,SW,219,5.0,7.6,86,0.00,,CLR,0.00,VWS V14.01,2013-02-14 11:02:00,
2013-02-14 05:04:00,34.9,31.1,29.95,SSW,210,6.7,7.0,86,0.00,,OVC017,0.00,VWS V14.01,2013-02-14 11:04:00,
2013-02-14 05:06:00,34.7,30.9,29.95,SSW,211,5.0,7.0,86,0.00,,OVC017,0.00,VWS V14.01,2013-02-14 11:06:00,
2013-02-14 05:07:00,34.7,30.5,29.95,SW,220,4.4,5.2,84,0.00,,CLR,0.00,VWS V14.01,2013-02-14 11:07:00,
2013-02-14 05:08:00,34.7,30.5,29.95,SW,218,5.0,5.2,84,0.00,,OVC017,0.00,VWS V14.01,2013-02-14 11:08:00,
2013-02-14 05:10:00,34.7,30.5,29.98,SW,216,4.4,6.4,84,0.00,,OVC017,0.00,VWS V14.01,2013-02-14 11:10:00,
2013-02-14 05:12:00,34.5,30.3,29.98,SW,221,4.4,7.0,84,0.00,,CLR,0.00,VWS V14.01,2013-02-14 11:12:00,
2013-02-14 05:14:00,34.5,30.3,29.98,SW,216,6.1,6.4,84,0.00,,OVC017,0.00,VWS V14.01,2013-02-14 11:14:00,
2013-02-14 05:16:00,34.5,30.3,29.98,SW,217,4.4,6.4,84,0.00,,OVC017,0.00,VWS V14.01,2013-02-14 11:16:00,
2013-02-14 05:17:00,34.5,30.3,29.98,SW,215,3.9,5.2,84,0.00,,CLR,0.00,VWS V14.01,2013-02-14 11:17:00,
2013-02-14 05:18:00,34.5,30.3,29.98,SW,216,4.4,5.2,84,0.00,,OVC017,0.00,VWS V14.01,2013-02-14 11:18:00,
2013-02-14 05:20:00,34.5,30.3,29.98,SW,220,5.0,5.2,84,0.00,,OVC017,0.00,VWS V14.01,2013-02-14 11:20:00,
2013-02-14 05:22:00,34.5,30.3,29.98,SSW,212,4.4,7.0,84,0.00,,CLR,0.00,VWS V14.01,2013-02-14 11:22:00,
2013-02-14 05:24:00,34.3,30.2,29.98,SW,223,3.9,6.4,84,0.00,,OVC017,0.00,VWS V14.01,2013-02-14 11:24:00,
2013-02-14 05:26:00,34.3,30.2,29.98,SW,216,4.4,7.0,84,0.00,,OVC017,0.00,VWS V14.01,2013-02-14 11:26:00,
2013-02-14 05:27:00,34.3,30.2,29.98,SW,217,5.0,5.2,84,0.00,,CLR,0.00,VWS V14.01,2013-02-14 11:27:00,
2013-02-14 05:28:00,34.3,30.2,29.98,SW,217,3.9,5.2,84,0.00,,OVC017,0.00,VWS V14.01,2013-02-14 11:28:00,
2013-02-14 05:30:00,34.3,30.2,29.98,SW,216,5.0,6.4,84,0.00,,OVC017,0.00,VWS V14.01,2013-02-14 11:30:00,
2013-02-14 05:33:00,34.3,30.2,29.98,SW,216,5.0,6.4,84,0.00,,CLR,0.00,VWS V14.01,2013-02-14 11:33:00,
2013-02-14 05:41:00,34.3,30.2,29.95,SW,221,6.7,7.0,84,0.00,,,0.00,VWS V14.01,2013-02-14 11:41:00,
2013-02-14 05:42:00,34.3,30.2,29.95,SW,216,5.5,7.0,84,0.00,,OVC017,0.00,VWS V14.01,2013-02-14 11:42:00,
2013-02-14 05:44:00,34.3,30.2,29.95,SW,222,4.4,7.0,84,0.00,,OVC017,0.00,VWS V14.01,2013-02-14 11:44:00,
2013-02-14 05:46:00,34.3,30.2,29.95,SW,224,5.0,5.2,84,0.00,,OVC017,0.00,VWS V14.01,2013-02-14 11:46:00,
2013-02-14 05:47:00,34.3,30.2,29.95,SW,220,5.0,5.2,84,0.00,,CLR,0.00,VWS V14.01,2013-02-14 11:47:00,
2013-02-14 05:48:00,34.3,30.2,29.95,SW,220,4.4,6.4,84,0.00,,OVC017,0.00,VWS V14.01,2013-02-14 11:48:00,
2013-02-14 05:50:00,34.3,30.2,29.95,SW,217,6.1,6.4,84,0.00,,OVC017,0.00,VWS V14.01,2013-02-14 11:50:00,
2013-02-14 05:52:00,34.3,30.2,29.95,SSW,212,4.4,6.4,84,0.00,,CLR,0.00,VWS V14.01,2013-02-14 11:52:00,
2013-02-14 05:54:00,34.2,30.0,29.95,SW,215,5.0,5.2,84,0.00,,OVC017,0.00,VWS V14.01,2013-02-14 11:54:00,
2013-02-14 05:56:00,34.2,30.0,29.98,SSW,213,5.0,6.4,84,0.00,,OVC017,0.00,VWS V14.01,2013-02-14 11:56:00,
2013-02-14 05:57:00,34.2,30.0,29.98,SSW,212,5.0,6.4,84,0.00,,CLR,0.00,VWS V14.01,2013-02-14 11:57:00,
2013-02-14 05:58:00,34.2,30.0,29.98,SSW,213,4.4,6.4,84,0.00,,OVC017,0.00,VWS V14.01,2013-02-14 11:58:00,
2013-02-14 06:00:00,34.0,29.8,29.98,SW,215,5.0,6.4,84,0.00,,OVC017,0.00,VWS V14.01,2013-02-14 12:00:00,
2013-02-14 06:02:00,34.0,29.8,29.98,SSW,212,6.1,7.0,84,0.00,,CLR,0.00,VWS V14.01,2013-02-14 12:02:00,
2013-02-14 06:04:00,34.0,29.8,29.98,SW,216,5.0,6.4,84,0.00,,OVC017,0.00,VWS V14.01,2013-02-14 12:04:00,
2013-02-14 06:06:00,34.0,29.8,29.98,SSW,207,6.1,7.0,84,0.00,,OVC017,0.00,VWS V14.01,2013-02-14 12:06:00,
2013-02-14 06:07:00,34.0,29.8,29.98,SW,222,6.7,7.0,84,0.00,,CLR,0.00,VWS V14.01,2013-02-14 12:07:00,
2013-02-14 06:08:00,34.0,29.8,29.98,SW,221,4.4,7.0,84,0.00,,OVC017,0.00,VWS V14.01,2013-02-14 12:08:00,
2013-02-14 06:10:00,33.8,29.6,29.98,SSW,205,6.7,7.6,84,0.00,,OVC017,0.00,VWS V14.01,2013-02-14 12:10:00,
2013-02-14 06:12:00,33.8,29.6,29.98,SW,221,6.1,6.4,84,0.00,,CLR,0.00,VWS V14.01,2013-02-14 12:12:00,
2013-02-14 06:14:00,33.8,29.6,29.98,SW,219,6.7,7.6,84,0.00,,OVC017,0.00,VWS V14.01,2013-02-14 12:14:00,
2013-02-14 06:16:00,33.8,29.6,29.98,SW,225,4.4,7.0,84,0.00,,OVC017,0.00,VWS V14.01,2013-02-14 12:16:00,
2013-02-14 06:17:00,33.8,29.6,29.98,SW,228,7.8,8.1,84,0.00,,CLR,0.00,VWS V14.01,2013-02-14 12:17:00,
2013-02-14 06:18:00,33.8,29.6,29.98,SW,217,5.0,8.1,84,0.00,,OVC017,0.00,VWS V14.01,2013-02-14 12:18:00,
2013-02-14 06:20:00,33.8,29.6,29.98,SW,217,4.4,8.1,84,0.00,,OVC017,0.00,VWS V14.01,2013-02-14 12:20:00,
2013-02-14 06:22:00,33.8,29.6,29.98,SW,214,7.2,7.6,84,0.00,,CLR,0.00,VWS V14.01,2013-02-14 12:22:00,
2013-02-14 06:24:00,33.8,29.6,29.98,SW,216,5.5,7.6,84,0.00,,OVC017,0.00,VWS V14.01,2013-02-14 12:24:00,
2013-02-14 06:26:00,33.8,29.6,29.98,SW,229,3.9,6.4,84,0.00,,OVC017,0.00,VWS V14.01,2013-02-14 12:26:00,
2013-02-14 06:27:00,33.8,29.6,29.98,SW,236,4.4,7.0,84,0.00,,CLR,0.00,VWS V14.01,2013-02-14 12:27:00,
2013-02-14 06:28:00,33.8,29.6,29.98,SW,226,6.7,7.6,84,0.00,,OVC017,0.00,VWS V14.01,2013-02-14 12:28:00,
2013-02-14 06:30:00,33.8,29.6,29.98,SW,232,7.2,7.6,84,0.00,,OVC017,0.00,VWS V14.01,2013-02-14 12:30:00,
2013-02-14 06:32:00,33.8,29.2,29.98,SW,232,5.0,6.4,83,0.00,,CLR,0.00,VWS V14.01,2013-02-14 12:32:00,
2013-02-14 06:34:00,33.8,29.2,29.98,SW,229,5.0,7.6,83,0.00,,OVC017,0.00,VWS V14.01,2013-02-14 12:34:00,
2013-02-14 06:36:00,33.8,29.2,29.98,SW,223,6.1,7.0,83,0.00,,OVC017,0.00,VWS V14.01,2013-02-14 12:36:00,
2013-02-14 06:37:00,33.8,29.6,29.98,SW,226,6.1,8.1,84,0.00,,CLR,0.00,VWS V14.01,2013-02-14 12:37:00,
2013-02-14 06:38:00,33.8,29.6,29.98,SW,214,6.7,8.1,84,0.00,,OVC017,0.00,VWS V14.01,2013-02-14 12:38:00,
2013-02-14 06:40:00,33.8,29.6,29.98,SW,227,3.3,6.4,84,0.00,,OVC017,0.00,VWS V14.01,2013-02-14 12:40:00,
2013-02-14 06:42:00,33.8,29.6,29.98,SW,234,6.7,7.6,84,0.00,,CLR,0.00,VWS V14.01,2013-02-14 12:42:00,
2013-02-14 06:44:00,34.0,29.8,29.98,SW,219,5.0,7.6,84,0.00,,OVC017,0.00,VWS V14.01,2013-02-14 12:44:00,
2013-02-14 06:46:00,34.0,29.4,29.98,SW,231,6.7,7.6,83,0.00,,OVC017,0.00,VWS V14.01,2013-02-14 12:46:00,
2013-02-14 06:47:00,34.0,29.8,29.98,SW,222,5.0,7.6,84,0.00,,CLR,0.00,VWS V14.01,2013-02-14 12:47:00,
2013-02-14 06:48:00,34.0,29.8,29.98,SW,216,5.0,7.0,84,0.00,,OVC017,0.00,VWS V14.01,2013-02-14 12:48:00,
2013-02-14 06:50:00,34.0,29.8,29.98,SW,221,4.4,5.8,84,0.00,,OVC017,0.00,VWS V14.01,2013-02-14 12:50:00,
2013-02-14 06:52:00,34.0,29.4,29.98,SW,216,5.0,7.6,83,0.00,,CLR,0.00,VWS V14.01,2013-02-14 12:52:00,
2013-02-14 06:54:00,34.0,29.4,29.98,SW,233,6.7,7.6,83,0.00,,OVC017,0.00,VWS V14.01,2013-02-14 12:54:00,
2013-02-14 06:56:00,34.0,29.4,29.98,WSW,237,4.4,7.0,83,0.00,,OVC017,0.00,VWS V14.01,2013-02-14 12:56:00,
2013-02-14 06:57:00,34.0,29.4,29.98,SW,227,6.7,7.6,83,0.00,,CLR,0.00,VWS V14.01,2013-02-14 12:57:00,
2013-02-14 06:58:00,34.0,29.4,29.98,SW,222,5.0,7.6,83,0.00,,OVC017,0.00,VWS V14.01,2013-02-14 12:58:00,
2013-02-14 07:00:00,34.0,29.4,29.98,WSW,238,4.4,5.8,83,0.00,,OVC017,0.00,VWS V14.01,2013-02-14 13:00:00,
2013-02-14 07:02:00,34.0,29.4,29.98,SW,215,5.5,6.4,83,0.00,,OVC017,0.00,VWS V14.01,2013-02-14 13:02:00,
2013-02-14 07:03:00,34.0,29.4,29.98,SW,226,6.1,7.0,83,0.00,,CLR,0.00,VWS V14.01,2013-02-14 13:03:00,
2013-02-14 07:04:00,34.0,29.4,29.98,SW,226,4.4,7.0,83,0.00,,OVC017,0.00,VWS V14.01,2013-02-14 13:04:00,
2013-02-14 07:06:00,34.0,29.4,29.98,SW,233,3.9,7.0,83,0.00,,OVC017,0.00,VWS V14.01,2013-02-14 13:06:00,
2013-02-14 07:08:00,34.2,29.6,29.98,SW,223,6.7,7.0,83,0.00,,CLR,0.00,VWS V14.01,2013-02-14 13:08:00,
2013-02-14 07:10:00,34.0,29.4,29.98,SW,223,5.5,7.0,83,0.00,,OVC017,0.00,VWS V14.01,2013-02-14 13:10:00,
2013-02-14 07:12:00,34.0,29.4,29.98,SW,223,4.4,5.8,83,0.00,,OVC017,0.00,VWS V14.01,2013-02-14 13:12:00,
2013-02-14 07:13:00,34.0,29.4,29.98,SW,228,4.4,5.2,83,0.00,,CLR,0.00,VWS V14.01,2013-02-14 13:13:00,
2013-02-14 07:14:00,34.0,29.4,29.98,SW,233,5.0,5.2,83,0.00,,OVC017,0.00,VWS V14.01,2013-02-14 13:14:00,
2013-02-14 07:16:00,34.0,29.4,29.98,SW,221,4.4,5.2,83,0.00,,OVC017,0.00,VWS V14.01,2013-02-14 13:16:00,
2013-02-14 07:18:00,34.0,29.0,29.98,SW,222,5.5,6.4,82,0.00,,CLR,0.00,VWS V14.01,2013-02-14 13:18:00,
2013-02-14 07:20:00,34.0,29.0,29.98,SW,232,5.0,7.0,82,0.00,,OVC017,0.00,VWS V14.01,2013-02-14 13:20:00,
2013-02-14 07:22:00,33.8,28.9,29.98,SW,224,6.1,7.6,82,0.00,,OVC017,0.00,VWS V14.01,2013-02-14 13:22:00,
2013-02-14 07:23:00,33.8,28.9,29.98,SW,223,5.5,7.6,82,0.00,,CLR,0.00,VWS V14.01,2013-02-14 13:23:00,
2013-02-14 07:24:00,33.8,28.9,29.98,SW,226,6.1,7.0,82,0.00,,OVC017,0.00,VWS V14.01,2013-02-14 13:24:00,
2013-02-14 07:26:00,34.0,29.0,29.98,SSW,207,6.7,7.0,82,0.00,,OVC017,0.00,VWS V14.01,2013-02-14 13:26:00,
2013-02-14 07:28:00,34.0,29.0,29.98,SW,221,4.4,7.0,82,0.00,,CLR,0.00,VWS V14.01,2013-02-14 13:28:00,
2013-02-14 07:30:00,34.0,29.0,29.98,SW,222,6.7,7.0,82,0.00,,OVC017,0.00,VWS V14.01,2013-02-14 13:30:00,
2013-02-14 07:32:00,34.0,29.0,29.98,SSW,204,5.0,8.1,82,0.00,,OVC017,0.00,VWS V14.01,2013-02-14 13:32:00,
2013-02-14 07:33:00,34.0,29.0,29.98,SW,226,5.0,8.1,82,0.00,,CLR,0.00,VWS V14.01,2013-02-14 13:33:00,
2013-02-14 07:34:00,34.2,29.2,29.98,SW,222,5.0,6.4,82,0.00,,OVC017,0.00,VWS V14.01,2013-02-14 13:34:00,
2013-02-14 07:36:00,34.3,29.4,29.98,SW,219,5.0,8.1,82,0.00,,OVC017,0.00,VWS V14.01,2013-02-14 13:36:00,
2013-02-14 07:38:00,34.3,29.4,29.98,SW,224,6.7,8.1,82,0.00,,CLR,0.00,VWS V14.01,2013-02-14 13:38:00,
2013-02-14 07:40:00,34.5,29.5,30.00,SW,224,6.7,8.1,82,0.00,,OVC017,0.00,VWS V14.01,2013-02-14 13:40:00,
2013-02-14 07:42:00,34.7,29.7,30.00,SSW,197,5.5,7.6,82,0.00,,OVC017,0.00,VWS V14.01,2013-02-14 13:42:00,
2013-02-14 07:43:00,34.9,29.9,30.01,SW,232,6.7,7.6,82,0.00,,CLR,0.00,VWS V14.01,2013-02-14 13:43:00,
2013-02-14 07:44:00,34.9,29.9,30.00,SW,224,6.1,7.0,82,0.00,,OVC017,0.00,VWS V14.01,2013-02-14 13:44:00,
2013-02-14 07:46:00,35.1,30.1,30.00,WSW,241,7.8,8.1,82,0.00,,OVC017,0.00,VWS V14.01,2013-02-14 13:46:00,
2013-02-14 07:48:00,35.4,30.4,30.01,SSW,199,6.7,8.1,82,0.00,,CLR,0.00,VWS V14.01,2013-02-14 13:48:00,
2013-02-14 07:50:00,35.6,30.6,30.00,SW,230,5.0,7.0,82,0.00,,OVC017,0.00,VWS V14.01,2013-02-14 13:50:00,
2013-02-14 07:52:00,35.6,30.6,30.00,SW,219,6.1,7.6,82,0.00,,OVC017,0.00,VWS V14.01,2013-02-14 13:52:00,
2013-02-14 07:53:00,35.8,30.8,30.01,SW,233,3.9,7.6,82,0.00,,CLR,0.00,VWS V14.01,2013-02-14 13:53:00,
2013-02-14 07:54:00,35.8,30.8,30.00,SSW,203,7.2,7.6,82,0.00,,OVC017,0.00,VWS V14.01,2013-02-14 13:54:00,
2013-02-14 07:56:00,36.0,31.0,30.00,WSW,237,7.2,7.6,82,0.00,,OVC017,0.00,VWS V14.01,2013-02-14 13:56:00,
2013-02-14 07:58:00,36.1,31.1,30.01,WSW,238,7.2,7.6,82,0.00,,CLR,0.00,VWS V14.01,2013-02-14 13:58:00,
2013-02-14 08:00:00,36.3,30.9,30.00,SW,228,6.1,8.1,81,0.00,,OVC017,0.00,VWS V14.01,2013-02-14 14:00:00,
2013-02-14 08:02:00,36.5,31.1,30.00,SW,216,6.7,8.1,81,0.00,,OVC017,0.00,VWS V14.01,2013-02-14 14:02:00,
2013-02-14 08:03:00,36.7,31.3,30.01,SW,220,3.3,7.0,81,0.00,,CLR,0.00,VWS V14.01,2013-02-14 14:03:00,
2013-02-14 08:04:00,36.7,31.3,30.00,SW,221,5.0,7.0,81,0.00,,OVC017,0.00,VWS V14.01,2013-02-14 14:04:00,
2013-02-14 08:06:00,36.9,31.4,30.00,SW,233,10.0,10.5,81,0.00,,OVC017,0.00,VWS V14.01,2013-02-14 14:06:00,
2013-02-14 08:08:00,37.0,31.6,30.01,SSW,212,7.8,8.1,81,0.00,,CLR,0.00,VWS V14.01,2013-02-14 14:08:00,
2013-02-14 08:10:00,37.2,31.4,30.00,SW,236,6.7,9.9,79,0.00,,OVC017,0.00,VWS V14.01,2013-02-14 14:10:00,
2013-02-14 08:12:00,37.4,31.6,30.00,WSW,252,6.7,9.3,79,0.00,,OVC017,0.00,VWS V14.01,2013-02-14 14:12:00,
2013-02-14 08:13:00,37.4,31.1,30.01,SW,234,6.7,8.7,78,0.00,,CLR,0.00,VWS V14.01,2013-02-14 14:13:00,
2013-02-14 08:14:00,37.4,31.1,30.00,WSW,242,7.2,8.1,78,0.00,,OVC017,0.00,VWS V14.01,2013-02-14 14:14:00,
2013-02-14 08:16:00,37.6,31.3,30.00,SW,220,7.8,10.8,78,0.00,,OVC017,0.00,VWS V14.01,2013-02-14 14:16:00,
2013-02-14 08:18:00,37.8,31.1,30.01,WSW,244,5.0,8.1,77,0.00,,CLR,0.00,VWS V14.01,2013-02-14 14:18:00,
2013-02-14 08:20:00,37.9,31.2,30.00,WSW,244,3.9,7.6,77,0.00,,OVC017,0.00,VWS V14.01,2013-02-14 14:20:00,
2013-02-14 08:22:00,37.9,30.8,30.00,WSW,250,6.7,8.1,75,0.00,,OVC017,0.00,VWS V14.01,2013-02-14 14:22:00,
2013-02-14 08:23:00,38.1,31.0,30.01,SW,231,7.2,8.1,75,0.00,,CLR,0.00,VWS V14.01,2013-02-14 14:23:00,
2013-02-14 08:24:00,38.3,31.2,30.00,WSW,237,6.7,8.1,75,0.00,,OVC017,0.00,VWS V14.01,2013-02-14 14:24:00,
2013-02-14 08:26:00,38.5,31.3,30.00,WSW,253,8.3,8.7,75,0.00,,OVC017,0.00,VWS V14.01,2013-02-14 14:26:00,
2013-02-14 08:28:00,38.7,31.1,30.01,SSW,213,5.5,9.9,74,0.00,,CLR,0.00,VWS V14.01,2013-02-14 14:28:00,
2013-02-14 08:30:00,38.7,31.1,30.00,WSW,251,6.7,8.1,74,0.00,,OVC017,0.00,VWS V14.01,2013-02-14 14:30:00,
2013-02-14 08:32:00,38.8,31.2,30.00,SW,225,4.4,7.6,74,0.00,,OVC017,0.00,VWS V14.01,2013-02-14 14:32:00,
2013-02-14 08:33:00,39.0,31.4,30.01,SW,231,7.2,8.1,74,0.00,,CLR,0.00,VWS V14.01,2013-02-14 14:33:00,
2013-02-14 08:34:00,39.0,31.0,30.00,SW,231,7.8,10.5,73,0.00,,OVC017,0.00,VWS V14.01,2013-02-14 14:34:00,
2013-02-14 08:36:00,39.2,30.7,30.00,SW,227,7.2,8.1,71,0.00,,OVC017,0.00,VWS V14.01,2013-02-14 14:36:00,
2013-02-14 08:38:00,39.4,30.9,30.01,SW,229,6.1,9.3,71,0.00,,CLR,0.00,VWS V14.01,2013-02-14 14:38:00,
2013-02-14 08:40:00,39.4,30.4,30.03,SW,231,6.1,10.5,70,0.00,,OVC017,0.00,VWS V14.01,2013-02-14 14:40:00,
2013-02-14 08:42:00,39.6,30.6,30.03,WSW,254,6.7,9.9,70,0.00,,OVC017,0.00,VWS V14.01,2013-02-14 14:42:00,
2013-02-14 08:43:00,39.7,30.8,30.03,SSW,212,6.7,9.3,70,0.00,,CLR,0.00,VWS V14.01,2013-02-14 14:43:00,
2013-02-14 08:44:00,39.7,30.8,30.03,SW,217,6.7,9.3,70,0.00,,OVC017,0.00,VWS V14.01,2013-02-14 14:44:00,
2013-02-14 08:46:00,39.7,30.8,30.03,SW,229,6.7,9.9,70,0.00,,OVC017,0.00,VWS V14.01,2013-02-14 14:46:00,
2013-02-14 08:48:00,40.1,30.6,30.03,SW,229,9.4,10.5,69,0.00,,CLR,0.00,VWS V14.01,2013-02-14 14:48:00,
2013-02-14 08:50:00,40.1,30.6,30.03,WSW,243,8.3,10.8,69,0.00,,OVC017,0.00,VWS V14.01,2013-02-14 14:50:00,
2013-02-14 08:52:00,40.3,30.8,30.03,WSW,249,7.2,10.5,69,0.00,,OVC017,0.00,VWS V14.01,2013-02-14 14:52:00,
2013-02-14 08:54:00,40.5,30.5,30.03,SW,214,5.5,7.6,67,0.00,,CLR,0.00,VWS V14.01,2013-02-14 14:54:00,
2013-02-14 08:56:00,40.6,30.7,30.03,WSW,240,5.0,8.1,67,0.00,,OVC017,0.00,VWS V14.01,2013-02-14 14:56:00,
2013-02-14 08:58:00,41.0,30.5,30.03,West,266,5.0,8.1,66,0.00,,OVC017,0.00,VWS V14.01,2013-02-14 14:58:00,
2013-02-14 08:59:00,41.2,30.7,30.03,West,272,6.7,7.0,66,0.00,,CLR,0.00,VWS V14.01,2013-02-14 14:59:00,
2013-02-14 09:00:00,41.2,30.7,30.03,SW,235,7.8,9.9,66,0.00,,OVC017,0.00,VWS V14.01,2013-02-14 15:00:00,
2013-02-14 09:02:00,41.5,31.0,30.03,West,281,5.0,8.1,66,0.00,,OVC017,0.00,VWS V14.01,2013-02-14 15:02:00,
2013-02-14 09:04:00,41.7,31.2,30.03,SW,228,6.1,9.9,66,0.00,,CLR,0.00,VWS V14.01,2013-02-14 15:04:00,
2013-02-14 09:06:00,41.7,31.2,30.03,WSW,250,6.7,8.1,66,0.00,,OVC017,0.00,VWS V14.01,2013-02-14 15:06:00,
2013-02-14 09:08:00,41.9,31.4,30.03,WSW,244,6.7,9.9,66,0.00,,OVC017,0.00,VWS V14.01,2013-02-14 15:08:00,
2013-02-14 09:09:00,42.1,31.6,30.03,WSW,240,4.4,9.9,66,0.00,,CLR,0.00,VWS V14.01,2013-02-14 15:09:00,
2013-02-14 09:10:00,42.1,31.6,30.03,SW,224,5.0,8.1,66,0.00,,OVC017,0.00,VWS V14.01,2013-02-14 15:10:00,
2013-02-14 09:12:00,42.3,31.2,30.03,SW,224,5.0,7.6,65,0.00,,OVC017,0.00,VWS V14.01,2013-02-14 15:12:00,
2013-02-14 09:14:00,42.4,31.4,30.03,WSW,238,7.8,9.9,65,0.00,,CLR,0.00,VWS V14.01,2013-02-14 15:14:00,
2013-02-14 09:16:00,42.6,31.6,30.03,WSW,258,6.7,8.1,65,0.00,,OVC017,0.00,VWS V14.01,2013-02-14 15:16:00,
2013-02-14 09:18:00,42.8,31.2,30.03,WSW,249,6.7,7.6,63,0.00,,OVC017,0.00,VWS V14.01,2013-02-14 15:18:00,
2013-02-14 09:19:00,42.8,31.2,30.03,SW,223,7.8,8.7,63,0.00,,CLR,0.00,VWS V14.01,2013-02-14 15:19:00,
2013-02-14 09:20:00,42.8,31.2,30.03,WSW,240,7.2,8.7,63,0.00,,OVC017,0.00,VWS V14.01,2013-02-14 15:20:00,
2013-02-14 09:22:00,43.0,31.4,30.03,WSW,238,6.7,7.6,63,0.00,,OVC017,0.00,VWS V14.01,2013-02-14 15:22:00,
2013-02-14 09:24:00,43.2,31.6,30.03,West,261,6.7,9.9,63,0.00,,CLR,0.00,VWS V14.01,2013-02-14 15:24:00,
2013-02-14 09:26:00,43.3,31.8,30.03,SW,223,6.7,8.1,63,0.00,,OVC017,0.00,VWS V14.01,2013-02-14 15:26:00,
2013-02-14 09:28:00,43.7,32.1,30.03,SW,235,5.0,7.6,63,0.00,,OVC017,0.00,VWS V14.01,2013-02-14 15:28:00,
2013-02-14 09:29:00,43.7,32.1,30.03,WSW,257,4.4,7.0,63,0.00,,CLR,0.00,VWS V14.01,2013-02-14 15:29:00,
2013-02-14 09:30:00,44.1,32.4,30.03,WSW,255,5.0,6.4,63,0.00,,OVC017,0.00,VWS V14.01,2013-02-14 15:30:00,
2013-02-14 09:32:00,44.2,32.6,30.03,SW,232,5.0,8.1,63,0.00,,OVC017,0.00,VWS V14.01,2013-02-14 15:32:00,
2013-02-14 09:34:00,44.6,30.8,30.03,SW,219,7.2,8.1,58,0.00,,CLR,0.00,VWS V14.01,2013-02-14 15:34:00,
2013-02-14 09:36:00,45.0,31.7,30.03,West,277,10.3,10.8,59,0.00,,OVC017,0.00,VWS V14.01,2013-02-14 15:36:00,
2013-02-14 09:38:00,45.3,32.0,30.03,WSW,242,7.8,10.8,59,0.00,,OVC017,0.00,VWS V14.01,2013-02-14 15:38:00,
2013-02-14 09:39:00,45.5,32.2,30.03,WSW,244,5.0,9.3,59,0.00,,CLR,0.00,VWS V14.01,2013-02-14 15:39:00,
2013-02-14 09:40:00,45.5,32.2,30.03,WNW,286,6.1,8.1,59,0.00,,OVC017,0.00,VWS V14.01,2013-02-14 15:40:00,
2013-02-14 09:42:00,45.7,31.8,30.03,WNW,290,6.7,9.9,58,0.00,,OVC017,0.00,VWS V14.01,2013-02-14 15:42:00,
2013-02-14 09:44:00,46.0,32.1,30.03,WNW,292,3.3,7.0,58,0.00,,CLR,0.00,VWS V14.01,2013-02-14 15:44:00,
2013-02-14 09:46:00,46.2,31.7,30.03,West,268,7.8,11.3,57,0.00,,OVC017,0.00,VWS V14.01,2013-02-14 15:46:00,
2013-02-14 09:48:00,46.2,31.7,30.03,WSW,240,6.1,11.3,57,0.00,,OVC017,0.00,VWS V14.01,2013-02-14 15:48:00,
2013-02-14 09:49:00,46.2,31.7,30.03,WNW,284,8.3,9.9,57,0.00,,CLR,0.00,VWS V14.01,2013-02-14 15:49:00,
2013-02-14 09:50:00,46.4,31.3,30.03,WSW,258,9.4,9.9,55,0.00,,OVC017,0.00,VWS V14.01,2013-02-14 15:50:00,
2013-02-14 09:52:00,46.4,31.3,30.03,SW,236,7.2,10.8,55,0.00,,OVC017,0.00,VWS V14.01,2013-02-14 15:52:00,
2013-02-14 09:54:00,46.6,30.9,30.03,WNW,294,9.4,9.9,54,0.00,,CLR,0.00,VWS V14.01,2013-02-14 15:54:00,
2013-02-14 09:56:00,46.6,30.9,30.03,West,274,9.4,11.3,54,0.00,,OVC017,0.00,VWS V14.01,2013-02-14 15:56:00,
2013-02-14 09:58:00,46.8,31.1,30.03,West,272,9.4,9.9,54,0.00,,OVC017,0.00,VWS V14.01,2013-02-14 15:58:00,
2013-02-14 09:59:00,46.8,31.1,30.03,WNW,284,10.0,10.8,54,0.00,,CLR,0.00,VWS V14.01,2013-02-14 15:59:00,
2013-02-14 10:00:00,46.9,31.2,30.03,West,277,7.2,10.8,54,0.00,,OVC017,0.00,VWS V14.01,2013-02-14 16:00:00,
2013-02-14 10:02:00,46.9,30.6,30.03,WNW,290,6.1,7.6,53,0.00,,OVC017,0.00,VWS V14.01,2013-02-14 16:02:00,
2013-02-14 10:04:00,47.1,30.8,30.03,West,263,10.8,11.3,53,0.00,,CLR,0.00,VWS V14.01,2013-02-14 16:04:00,
2013-02-14 10:06:00,47.1,30.8,30.03,West,278,8.3,11.9,53,0.00,,OVC017,0.00,VWS V14.01,2013-02-14 16:06:00,
2013-02-14 10:08:00,47.1,30.8,30.03,WSW,247,6.7,10.5,53,0.00,,OVC017,0.00,VWS V14.01,2013-02-14 16:08:00,
2013-02-14 10:09:00,47.1,30.8,30.03,WNW,289,5.0,8.1,53,0.00,,CLR,0.00,VWS V14.01,2013-02-14 16:09:00,
2013-02-14 10:10:00,47.3,31.0,30.03,WSW,243,6.7,8.1,53,0.00,,OVC017,0.00,VWS V14.01,2013-02-14 16:10:00,
2013-02-14 10:12:00,47.3,30.3,30.03,SW,225,6.7,11.3,51,0.00,,OVC017,0.00,VWS V14.01,2013-02-14 16:12:00,
2013-02-14 10:14:00,47.3,30.3,30.03,WSW,251,7.8,10.8,51,0.00,,CLR,0.00,VWS V14.01,2013-02-14 16:14:00,
2013-02-14 10:16:00,47.5,30.5,30.03,WNW,285,10.8,11.9,51,0.00,,OVC017,0.00,VWS V14.01,2013-02-14 16:16:00,
2013-02-14 10:19:00,47.7,30.7,30.03,WSW,257,8.3,9.3,51,0.00,,CLR,0.00,VWS V14.01,2013-02-14 16:19:00,
2013-02-14 10:20:00,47.7,30.7,30.03,WNW,288,6.7,9.3,51,0.00,,OVC017,0.00,VWS V14.01,2013-02-14 16:20:00,
2013-02-14 10:22:00,47.7,30.7,30.03,West,271,10.0,10.5,51,0.00,,OVC017,0.00,VWS V14.01,2013-02-14 16:22:00,
2013-02-14 10:24:00,47.8,30.8,30.03,SW,236,5.0,10.8,51,0.00,,CLR,0.00,VWS V14.01,2013-02-14 16:24:00,
2013-02-14 10:26:00,47.8,30.8,30.03,WNW,297,4.4,8.1,51,0.00,,OVC017,0.00,VWS V14.01,2013-02-14 16:26:00,
2013-02-14 10:28:00,48.0,31.0,30.03,SW,236,5.0,8.1,51,0.00,,OVC017,0.00,VWS V14.01,2013-02-14 16:28:00,
2013-02-14 10:29:00,48.0,31.0,30.03,WSW,247,7.2,10.8,51,0.00,,CLR,0.00,VWS V14.01,2013-02-14 16:29:00,
2013-02-14 10:30:00,48.0,31.0,30.03,SW,217,7.8,10.8,51,0.00,,OVC017,0.00,VWS V14.01,2013-02-14 16:30:00,
2013-02-14 10:32:00,48.2,30.5,30.03,WSW,243,6.7,10.5,50,0.00,,OVC017,0.00,VWS V14.01,2013-02-14 16:32:00,
2013-02-14 10:34:00,48.6,30.9,30.03,SW,226,7.8,9.9,50,0.00,,CLR,0.00,VWS V14.01,2013-02-14 16:34:00,
2013-02-14 10:36:00,48.6,30.9,30.03,SW,232,7.2,9.9,50,0.00,,OVC017,0.00,VWS V14.01,2013-02-14 16:36:00,
2013-02-14 10:38:00,48.6,30.9,30.03,WNW,303,9.4,10.5,50,0.00,,OVC017,0.00,VWS V14.01,2013-02-14 16:38:00,
2013-02-14 10:39:00,48.6,30.9,30.03,WNW,302,10.8,11.3,50,0.00,,CLR,0.00,VWS V14.01,2013-02-14 16:39:00,
2013-02-14 10:40:00,48.6,30.9,30.03,WNW,299,10.0,11.3,50,0.00,,OVC017,0.00,VWS V14.01,2013-02-14 16:40:00,
2013-02-14 10:42:00,48.7,31.0,30.03,NW,314,3.9,10.5,50,0.00,,OVC017,0.00,VWS V14.01,2013-02-14 16:42:00,
2013-02-14 10:44:00,48.7,31.0,30.03,West,266,3.3,7.6,50,0.00,,CLR,0.00,VWS V14.01,2013-02-14 16:44:00,
2013-02-14 10:46:00,48.9,31.2,30.03,WSW,250,3.3,4.7,50,0.00,,OVC017,0.00,VWS V14.01,2013-02-14 16:46:00,
2013-02-14 10:48:00,49.1,31.4,30.03,WNW,286,7.2,9.9,50,0.00,,OVC017,0.00,VWS V14.01,2013-02-14 16:48:00,
2013-02-14 10:49:00,49.3,31.5,30.03,WSW,244,7.2,10.5,50,0.00,,CLR,0.00,VWS V14.01,2013-02-14 16:49:00,
2013-02-14 10:50:00,49.3,31.5,30.03,West,273,6.1,10.5,50,0.00,,OVC017,0.00,VWS V14.01,2013-02-14 16:50:00,
2013-02-14 10:52:00,49.5,31.7,30.03,WSW,240,5.0,10.5,50,0.00,,OVC017,0.00,VWS V14.01,2013-02-14 16:52:00,
2013-02-14 10:54:00,49.5,31.7,30.03,West,262,4.4,10.8,50,0.00,,OVC017,0.00,VWS V14.01,2013-02-14 16:54:00,
2013-02-14 10:55:00,49.5,31.7,30.03,WSW,253,3.9,9.9,50,0.00,,CLR,0.00,VWS V14.01,2013-02-14 16:55:00,
2013-02-14 10:56:00,49.5,31.7,30.03,WSW,252,0.0,4.7,50,0.00,,OVC017,0.00,VWS V14.01,2013-02-14 16:56:00,
2013-02-14 10:58:00,49.6,31.9,30.03,West,278,4.4,8.1,50,0.00,,OVC017,0.00,VWS V14.01,2013-02-14 16:58:00,
2013-02-14 11:00:00,49.8,32.0,30.03,West,278,10.0,10.5,50,0.00,,CLR,0.00,VWS V14.01,2013-02-14 17:00:00,
2013-02-14 11:02:00,50.0,31.5,30.03,West,270,5.0,11.3,49,0.00,,OVC017,0.00,VWS V14.01,2013-02-14 17:02:00,
2013-02-14 11:04:00,50.0,31.5,30.03,NW,312,4.4,7.0,49,0.00,,OVC017,0.00,VWS V14.01,2013-02-14 17:04:00,
2013-02-14 11:05:00,50.0,31.5,30.03,NW,312,5.0,7.0,49,0.00,,CLR,0.00,VWS V14.01,2013-02-14 17:05:00,
2013-02-14 11:06:00,50.0,31.5,30.03,WNW,291,3.3,5.2,49,0.00,,OVC017,0.00,VWS V14.01,2013-02-14 17:06:00,
2013-02-14 11:08:00,50.0,31.5,30.03,WNW,292,9.4,9.9,49,0.00,,OVC017,0.00,VWS V14.01,2013-02-14 17:08:00,
2013-02-14 11:10:00,50.2,31.7,30.03,SW,220,6.1,9.9,49,0.00,,CLR,0.00,VWS V14.01,2013-02-14 17:10:00,
2013-02-14 11:12:00,50.2,31.7,30.03,SW,236,7.2,9.9,49,0.00,,OVC017,0.00,VWS V14.01,2013-02-14 17:12:00,
2013-02-14 11:14:00,50.2,31.7,30.03,West,275,8.9,11.3,49,0.00,,OVC017,0.00,VWS V14.01,2013-02-14 17:14:00,
2013-02-14 11:15:00,50.2,31.7,30.03,WSW,257,6.7,11.3,49,0.00,,CLR,0.00,VWS V14.01,2013-02-14 17:15:00,
2013-02-14 11:16:00,50.4,31.9,30.03,West,276,6.7,9.3,49,0.00,,OVC017,0.00,VWS V14.01,2013-02-14 17:16:00,
2013-02-14 11:18:00,50.4,31.9,30.03,WSW,258,4.4,8.1,49,0.00,,OVC017,0.00,VWS V14.01,2013-02-14 17:18:00,
2013-02-14 11:20:00,50.5,32.0,30.03,SW,235,3.3,8.1,49,0.00,,CLR,0.00,VWS V14.01,2013-02-14 17:20:00,
2013-02-14 11:22:00,50.5,32.0,30.03,WSW,245,0.0,7.0,49,0.00,,OVC017,0.00,VWS V14.01,2013-02-14 17:22:00,
2013-02-14 11:24:00,50.7,32.2,30.03,West,262,5.0,7.6,49,0.00,,OVC017,0.00,VWS V14.01,2013-02-14 17:24:00,
2013-02-14 11:25:00,50.9,32.4,30.03,WNW,282,3.3,6.4,49,0.00,,CLR,0.00,VWS V14.01,2013-02-14 17:25:00,
2013-02-14 11:26:00,50.9,32.4,30.03,WNW,300,3.9,8.1,49,0.00,,OVC017,0.00,VWS V14.01,2013-02-14 17:26:00,
2013-02-14 11:28:00,51.1,32.5,30.03,West,278,0.0,4.1,49,0.00,,OVC017,0.00,VWS V14.01,2013-02-14 17:28:00,
2013-02-14 11:30:00,51.1,32.5,30.03,WNW,287,0.0,8.1,49,0.00,,CLR,0.00,VWS V14.01,2013-02-14 17:30:00,
2013-02-14 11:32:00,51.3,32.7,30.03,SW,235,6.7,8.1,49,0.00,,OVC017,0.00,VWS V14.01,2013-02-14 17:32:00,
2013-02-14 11:34:00,51.1,32.5,30.03,South,181,5.0,8.1,49,0.00,,OVC017,0.00,VWS V14.01,2013-02-14 17:34:00,
2013-02-14 11:35:00,51.1,32.5,30.03,South,176,5.0,8.1,49,0.00,,CLR,0.00,VWS V14.01,2013-02-14 17:35:00,
2013-02-14 11:36:00,51.1,32.5,30.03,South,185,4.4,6.4,49,0.00,,OVC017,0.00,VWS V14.01,2013-02-14 17:36:00,
2013-02-14 11:38:00,51.1,32.5,30.03,West,268,3.9,5.2,49,0.00,,OVC017,0.00,VWS V14.01,2013-02-14 17:38:00,
2013-02-14 11:40:00,51.1,32.5,30.03,North,9,0.0,5.2,49,0.00,,CLR,0.00,VWS V14.01,2013-02-14 17:40:00,
2013-02-14 11:42:00,51.3,32.7,30.03,NNW,337,4.4,5.2,49,0.00,,OVC017,0.00,VWS V14.01,2013-02-14 17:42:00,
2013-02-14 11:44:00,51.4,32.8,30.03,WSW,244,6.1,7.6,49,0.00,,OVC017,0.00,VWS V14.01,2013-02-14 17:44:00,
2013-02-14 11:45:00,51.6,33.0,30.03,SW,231,3.9,7.6,49,0.00,,CLR,0.00,VWS V14.01,2013-02-14 17:45:00,
2013-02-14 11:46:00,51.6,33.0,30.03,South,185,0.0,7.6,49,0.00,,OVC017,0.00,VWS V14.01,2013-02-14 17:46:00,
2013-02-14 11:48:00,51.8,32.5,30.03,WNW,294,3.9,4.1,48,0.00,,OVC017,0.00,VWS V14.01,2013-02-14 17:48:00,
2013-02-14 11:50:00,51.8,32.5,30.03,WNW,290,7.8,11.3,48,0.00,,CLR,0.00,VWS V14.01,2013-02-14 17:50:00,
2013-02-14 11:52:00,52.0,32.7,30.03,WSW,256,3.3,8.1,48,0.00,,OVC017,0.00,VWS V14.01,2013-02-14 17:52:00,
2013-02-14 11:54:00,52.2,32.8,30.03,SSW,192,5.0,7.6,48,0.00,,OVC017,0.00,VWS V14.01,2013-02-14 17:54:00,
2013-02-14 11:55:00,52.0,32.7,30.03,SSW,204,6.7,7.6,48,0.00,,CLR,0.00,VWS V14.01,2013-02-14 17:55:00,
2013-02-14 11:56:00,52.0,32.7,30.03,West,272,3.9,7.0,48,0.00,,OVC017,0.00,VWS V14.01,2013-02-14 17:56:00,
2013-02-14 11:58:00,52.0,32.7,30.03,NNW,332,5.0,9.9,48,0.00,,OVC017,0.00,VWS V14.01,2013-02-14 17:58:00,
2013-02-14 12:00:00,52.0,32.7,30.03,West,265,3.9,7.0,48,0.00,,CLR,0.00,VWS V14.01,2013-02-14 18:00:00,
2013-02-14 12:02:00,52.2,32.8,30.03,WNW,288,3.3,5.2,48,0.00,,OVC017,0.00,VWS V14.01,2013-02-14 18:02:00,
2013-02-14 12:04:00,52.5,33.2,30.03,WNW,292,0.0,4.7,48,0.00,,OVC017,0.00,VWS V14.01,2013-02-14 18:04:00,
2013-02-14 12:05:00,52.7,33.3,30.03,NE,43,0.0,4.1,48,0.00,,CLR,0.00,VWS V14.01,2013-02-14 18:05:00,
2013-02-14 12:06:00,52.7,33.3,30.03,WSW,258,3.3,4.1,48,0.00,,OVC017,0.00,VWS V14.01,2013-02-14 18:06:00,
2013-02-14 12:08:00,52.9,33.5,30.03,NW,307,0.0,4.7,48,0.00,,OVC017,0.00,VWS V14.01,2013-02-14 18:08:00,
2013-02-14 12:10:00,53.2,33.8,30.03,NW,305,3.9,5.2,48,0.00,,CLR,0.00,VWS V14.01,2013-02-14 18:10:00,
2013-02-14 12:12:00,53.4,34.0,30.03,West,277,3.3,4.1,48,0.00,,OVC017,0.00,VWS V14.01,2013-02-14 18:12:00,
2013-02-14 12:14:00,54.0,34.5,30.03,NNW,337,5.0,8.1,48,0.00,,OVC017,0.00,VWS V14.01,2013-02-14 18:14:00,
2013-02-14 12:15:00,54.1,33.9,30.03,WNW,302,3.9,8.1,46,0.00,,CLR,0.00,VWS V14.01,2013-02-14 18:15:00,
2013-02-14 12:16:00,54.1,33.9,30.03,West,260,3.3,7.6,46,0.00,,OVC017,0.00,VWS V14.01,2013-02-14 18:16:00,
2013-02-14 12:18:00,54.3,34.1,30.03,West,275,6.1,10.5,46,0.00,,OVC017,0.00,VWS V14.01,2013-02-14 18:18:00,
2013-02-14 12:20:00,54.1,33.9,30.03,North,357,4.4,7.0,46,0.00,,CLR,0.00,VWS V14.01,2013-02-14 18:20:00,
2013-02-14 12:22:00,54.3,34.1,30.03,North,353,3.3,6.4,46,0.00,,OVC017,0.00,VWS V14.01,2013-02-14 18:22:00,
2013-02-14 12:24:00,54.3,34.1,30.03,WNW,289,7.2,10.8,46,0.00,,OVC017,0.00,VWS V14.01,2013-02-14 18:24:00,
2013-02-14 12:25:00,54.3,34.1,30.03,West,273,7.2,10.8,46,0.00,,CLR,0.00,VWS V14.01,2013-02-14 18:25:00,
2013-02-14 12:26:00,54.3,34.1,30.03,WNW,299,10.0,10.5,46,0.00,,OVC017,0.00,VWS V14.01,2013-02-14 18:26:00,
2013-02-14 12:28:00,54.3,34.1,30.03,West,280,3.9,10.5,46,0.00,,OVC017,0.00,VWS V14.01,2013-02-14 18:28:00,
2013-02-14 12:30:00,54.3,34.1,30.03,WNW,291,4.4,5.2,46,0.00,,CLR,0.00,VWS V14.01,2013-02-14 18:30:00,
2013-02-14 12:32:00,54.5,34.3,30.03,West,273,6.7,8.1,46,0.00,,OVC017,0.00,VWS V14.01,2013-02-14 18:32:00,
2013-02-14 12:34:00,54.5,34.3,30.03,WNW,284,4.4,8.7,46,0.00,,OVC017,0.00,VWS V14.01,2013-02-14 18:34:00,
2013-02-14 12:35:00,54.5,33.5,30.03,NNW,338,5.0,7.6,45,0.00,,CLR,0.00,VWS V14.01,2013-02-14 18:35:00,
2013-02-14 12:36:00,54.5,33.5,30.03,NW,306,6.7,7.6,45,0.00,,OVC017,0.00,VWS V14.01,2013-02-14 18:36:00,
2013-02-14 12:38:00,54.5,33.5,30.03,NW,310,5.0,7.6,45,0.00,,OVC017,0.00,VWS V14.01,2013-02-14 18:38:00,
2013-02-14 12:40:00,54.7,33.0,30.03,WNW,295,3.3,7.6,44,0.00,,CLR,0.00,VWS V14.01,2013-02-14 18:40:00,
2013-02-14 12:42:00,54.7,33.0,30.03,WNW,298,6.1,6.4,44,0.00,,OVC017,0.00,VWS V14.01,2013-02-14 18:42:00,
2013-02-14 12:44:00,54.9,33.9,30.03,West,272,10.8,13.1,45,0.00,,OVC017,0.00,VWS V14.01,2013-02-14 18:44:00,
2013-02-14 12:45:00,54.9,33.9,30.03,WNW,294,6.7,11.3,45,0.00,,CLR,0.00,VWS V14.01,2013-02-14 18:45:00,
2013-02-14 12:46:00,54.9,33.9,30.03,WNW,295,2.8,11.3,45,0.00,,OVC017,0.00,VWS V14.01,2013-02-14 18:46:00,
2013-02-14 12:48:00,54.7,33.0,30.03,NW,307,4.4,7.6,44,0.00,,OVC017,0.00,VWS V14.01,2013-02-14 18:48:00,
2013-02-14 12:50:00,54.7,33.0,30.03,North,5,5.0,5.2,44,0.00,,CLR,0.00,VWS V14.01,2013-02-14 18:50:00,
2013-02-14 12:52:00,54.7,33.7,30.03,NNW,343,6.7,7.0,45,0.00,,OVC017,0.00,VWS V14.01,2013-02-14 18:52:00,
2013-02-14 12:54:00,54.9,33.1,30.03,NE,54,3.9,7.0,44,0.00,,OVC017,0.00,VWS V14.01,2013-02-14 18:54:00,
2013-02-14 12:55:00,55.0,33.3,30.03,East,84,0.0,4.1,44,0.00,,CLR,0.00,VWS V14.01,2013-02-14 18:55:00,
2013-02-14 12:56:00,55.0,33.3,30.03,NNE,19,3.3,4.1,44,0.00,,OVC017,0.00,VWS V14.01,2013-02-14 18:56:00,
2013-02-14 12:58:00,55.0,33.3,30.03,NNE,15,3.9,7.6,44,0.00,,OVC017,0.00,VWS V14.01,2013-02-14 18:58:00,
2013-02-14 13:00:00,55.4,33.6,30.03,NNE,23,5.0,8.1,44,0.00,,CLR,0.00,VWS V14.01,2013-02-14 19:00:00,
2013-02-14 13:02:00,55.6,33.8,30.03,NNW,338,5.0,8.1,44,0.00,,OVC017,0.00,VWS V14.01,2013-02-14 19:02:00,
2013-02-14 13:04:00,55.9,33.3,30.03,North,353,6.7,7.6,42,0.00,,OVC017,0.00,VWS V14.01,2013-02-14 19:04:00,
2013-02-14 13:05:00,56.1,33.5,30.03,NW,319,6.7,7.0,42,0.00,,CLR,0.00,VWS V14.01,2013-02-14 19:05:00,
2013-02-14 13:06:00,56.1,33.5,30.03,WNW,297,6.7,7.0,42,0.00,,OVC017,0.00,VWS V14.01,2013-02-14 19:06:00,
2013-02-14 13:08:00,56.1,33.5,30.03,NW,309,3.9,8.1,42,0.00,,OVC017,0.00,VWS V14.01,2013-02-14 19:08:00,
2013-02-14 13:10:00,56.1,34.3,30.03,NNE,28,5.0,5.2,44,0.00,,CLR,0.00,VWS V14.01,2013-02-14 19:10:00,
2013-02-14 13:12:00,56.1,34.3,30.03,NNE,30,7.2,9.9,44,0.00,,OVC017,0.00,VWS V14.01,2013-02-14 19:12:00,
2013-02-14 13:14:00,56.5,33.8,30.03,NNW,339,0.0,7.6,42,0.00,,OVC017,0.00,VWS V14.01,2013-02-14 19:14:00,
2013-02-14 13:16:00,56.5,33.0,30.03,NE,35,9.4,9.9,41,0.00,,CLR,0.00,VWS V14.01,2013-02-14 19:16:00,
2013-02-14 13:18:00,56.5,33.0,30.03,NNW,343,4.4,6.4,41,0.00,,OVC017,0.00,VWS V14.01,2013-02-14 19:18:00,
2013-02-14 13:20:00,56.5,33.8,30.03,NNW,339,6.7,7.6,42,0.00,,OVC017,0.00,VWS V14.01,2013-02-14 19:20:00,
2013-02-14 13:21:00,56.7,33.2,30.03,North,1,6.7,7.6,41,0.00,,CLR,0.00,VWS V14.01,2013-02-14 19:21:00,
2013-02-14 13:22:00,56.7,33.2,30.03,NE,41,6.7,7.0,41,0.00,,OVC017,0.00,VWS V14.01,2013-02-14 19:22:00,
2013-02-14 13:24:00,56.8,33.4,30.03,NNE,17,6.1,10.5,41,0.00,,OVC017,0.00,VWS V14.01,2013-02-14 19:24:00,
2013-02-14 13:26:00,56.8,33.4,30.01,NW,315,5.0,7.0,41,0.00,,CLR,0.00,VWS V14.01,2013-02-14 19:26:00,
2013-02-14 13:28:00,56.7,33.2,30.00,NW,320,6.7,8.1,41,0.00,,OVC017,0.00,VWS V14.01,2013-02-14 19:28:00,
2013-02-14 13:30:00,56.5,33.0,30.00,NW,318,3.9,5.2,41,0.00,,OVC017,0.00,VWS V14.01,2013-02-14 19:30:00,
2013-02-14 13:31:00,56.5,33.0,30.01,NW,307,6.1,6.4,41,0.00,,CLR,0.00,VWS V14.01,2013-02-14 19:31:00,
2013-02-14 13:32:00,56.3,32.9,30.00,NNE,16,6.1,6.4,41,0.00,,OVC017,0.00,VWS V14.01,2013-02-14 19:32:00,
2013-02-14 13:34:00,56.3,32.9,30.00,NNW,344,3.9,6.4,41,0.00,,OVC017,0.00,VWS V14.01,2013-02-14 19:34:00,
2013-02-14 13:36:00,56.3,32.9,30.01,NW,324,5.0,5.2,41,0.00,,CLR,0.00,VWS V14.01,2013-02-14 19:36:00,
2013-02-14 13:38:00,56.1,32.7,30.00,NW,320,2.8,7.6,41,0.00,,OVC017,0.00,VWS V14.01,2013-02-14 19:38:00,
2013-02-14 13:40:00,55.9,32.5,30.00,SSW,201,0.0,5.2,41,0.00,,OVC017,0.00,VWS V14.01,2013-02-14 19:40:00,
2013-02-14 13:41:00,55.9,32.5,30.01,NW,322,3.9,5.2,41,0.00,,CLR,0.00,VWS V14.01,2013-02-14 19:41:00,
2013-02-14 13:42:00,55.9,32.5,30.00,NE,36,3.9,4.7,41,0.00,,OVC017,0.00,VWS V14.01,2013-02-14 19:42:00,
2013-02-14 13:44:00,56.1,32.7,30.00,North,353,3.9,8.1,41,0.00,,OVC017,0.00,VWS V14.01,2013-02-14 19:44:00,
2013-02-14 13:46:00,56.3,32.9,30.01,NW,323,7.2,7.6,41,0.00,,CLR,0.00,VWS V14.01,2013-02-14 19:46:00,
2013-02-14 13:48:00,56.5,33.0,30.00,West,280,6.7,9.9,41,0.00,,OVC017,0.00,VWS V14.01,2013-02-14 19:48:00,
2013-02-14 13:50:00,56.3,32.9,30.00,West,266,0.0,7.0,41,0.00,,OVC017,0.00,VWS V14.01,2013-02-14 19:50:00,
2013-02-14 13:51:00,56.3,32.9,30.01,SW,214,3.3,3.5,41,0.00,,CLR,0.00,VWS V14.01,2013-02-14 19:51:00,
2013-02-14 13:52:00,56.3,32.9,30.00,SW,214,2.8,4.1,41,0.00,,OVC017,0.00,VWS V14.01,2013-02-14 19:52:00,
2013-02-14 13:54:00,56.5,33.8,30.00,WSW,251,7.8,8.1,42,0.00,,OVC017,0.00,VWS V14.01,2013-02-14 19:54:00,
2013-02-14 13:56:00,56.5,33.8,30.01,WNW,288,3.3,10.8,42,0.00,,CLR,0.00,VWS V14.01,2013-02-14 19:56:00,
2013-02-14 13:58:00,56.7,33.2,30.00,WNW,298,6.7,7.6,41,0.00,,OVC017,0.00,VWS V14.01,2013-02-14 19:58:00,
2013-02-14 14:00:00,56.7,33.2,30.00,WNW,283,7.2,10.8,41,0.00,,OVC017,0.00,VWS V14.01,2013-02-14 20:00:00,
2013-02-14 14:01:00,56.5,33.0,30.01,NNW,327,5.0,10.8,41,0.00,,CLR,0.00,VWS V14.01,2013-02-14 20:01:00,
2013-02-14 14:02:00,56.3,32.9,30.00,NNW,336,3.3,7.6,41,0.00,,OVC017,0.00,VWS V14.01,2013-02-14 20:02:00,
2013-02-14 14:04:00,56.3,32.9,30.00,NW,314,3.9,6.4,41,0.00,,OVC017,0.00,VWS V14.01,2013-02-14 20:04:00,
2013-02-14 14:06:00,56.1,32.7,30.01,West,273,6.7,7.0,41,0.00,,CLR,0.00,VWS V14.01,2013-02-14 20:06:00,
2013-02-14 14:08:00,55.9,32.5,30.00,NW,317,3.9,8.1,41,0.00,,OVC017,0.00,VWS V14.01,2013-02-14 20:08:00,
2013-02-14 14:10:00,56.1,32.7,30.00,NW,325,6.7,8.1,41,0.00,,OVC017,0.00,VWS V14.01,2013-02-14 20:10:00,
2013-02-14 14:11:00,56.1,32.7,30.01,North,1,3.3,8.1,41,0.00,,CLR,0.00,VWS V14.01,2013-02-14 20:11:00,
2013-02-14 14:12:00,56.1,32.7,30.00,NW,308,2.8,7.0,41,0.00,,OVC017,0.00,VWS V14.01,2013-02-14 20:12:00,
2013-02-14 14:14:00,56.3,32.9,30.00,WNW,288,7.8,9.9,41,0.00,,OVC017,0.00,VWS V14.01,2013-02-14 20:14:00,
2013-02-14 14:16:00,56.3,32.9,30.01,West,267,8.3,8.7,41,0.00,,CLR,0.00,VWS V14.01,2013-02-14 20:16:00,
2013-02-14 14:18:00,56.3,32.9,30.00,SW,227,6.7,8.7,41,0.00,,OVC017,0.00,VWS V14.01,2013-02-14 20:18:00,
2013-02-14 14:20:00,56.5,33.0,30.00,SW,235,5.0,9.9,41,0.00,,OVC017,0.00,VWS V14.01,2013-02-14 20:20:00,
2013-02-14 14:21:00,56.5,33.0,30.01,WNW,294,6.7,9.3,41,0.00,,CLR,0.00,VWS V14.01,2013-02-14 20:21:00,
2013-02-14 14:22:00,56.5,33.0,30.00,WNW,298,10.8,11.3,41,0.00,,OVC017,0.00,VWS V14.01,2013-02-14 20:22:00,
2013-02-14 14:24:00,56.5,33.8,30.00,WNW,301,4.4,11.3,42,0.00,,OVC017,0.00,VWS V14.01,2013-02-14 20:24:00,
2013-02-14 14:26:00,56.7,34.0,30.01,NNE,20,10.3,10.8,42,0.00,,CLR,0.00,VWS V14.01,2013-02-14 20:26:00,
2013-02-14 14:28:00,56.7,33.2,30.00,North,357,4.4,11.3,41,0.00,,OVC017,0.00,VWS V14.01,2013-02-14 20:28:00,
2013-02-14 14:30:00,56.7,33.2,30.00,ENE,66,5.0,7.6,41,0.00,,OVC017,0.00,VWS V14.01,2013-02-14 20:30:00,
2013-02-14 14:31:00,56.7,33.2,30.01,NE,40,3.9,8.1,41,0.00,,CLR,0.00,VWS V14.01,2013-02-14 20:31:00,
2013-02-14 14:32:00,56.7,33.2,30.00,NNE,32,6.7,10.5,41,0.00,,OVC017,0.00,VWS V14.01,2013-02-14 20:32:00,
2013-02-14 14:34:00,56.8,33.4,30.00,WNW,297,3.9,8.1,41,0.00,,OVC017,0.00,VWS V14.01,2013-02-14 20:34:00,
2013-02-14 14:36:00,56.8,33.4,30.01,North,357,10.0,10.8,41,0.00,,CLR,0.00,VWS V14.01,2013-02-14 20:36:00,
2013-02-14 14:38:00,57.0,33.5,30.00,North,0,3.3,10.5,41,0.00,,OVC017,0.00,VWS V14.01,2013-02-14 20:38:00,
2013-02-14 14:40:00,57.0,33.5,30.00,WNW,301,6.1,10.8,41,0.00,,OVC017,0.00,VWS V14.01,2013-02-14 20:40:00,
2013-02-14 14:41:00,57.0,32.7,30.01,NNW,329,6.7,7.6,40,0.00,,CLR,0.00,VWS V14.01,2013-02-14 20:41:00,
2013-02-14 14:42:00,57.0,32.7,30.00,WNW,299,7.2,8.7,40,0.00,,OVC017,0.00,VWS V14.01,2013-02-14 20:42:00,
2013-02-14 14:44:00,57.0,32.7,30.00,NNW,330,7.8,8.7,40,0.00,,OVC017,0.00,VWS V14.01,2013-02-14 20:44:00,
2013-02-14 14:46:00,56.7,32.4,30.01,West,263,6.1,7.0,40,0.00,,CLR,0.00,VWS V14.01,2013-02-14 20:46:00,
2013-02-14 14:48:00,56.7,32.4,30.00,NW,308,4.4,7.6,40,0.00,,OVC017,0.00,VWS V14.01,2013-02-14 20:48:00,
2013-02-14 14:50:00,56.5,33.0,30.00,NNW,346,0.0,4.7,41,0.00,,OVC017,0.00,VWS V14.01,2013-02-14 20:50:00,
2013-02-14 14:51:00,56.5,33.0,30.01,North,3,4.4,4.7,41,0.00,,CLR,0.00,VWS V14.01,2013-02-14 20:51:00,
2013-02-14 14:52:00,56.5,33.0,30.00,NNE,32,3.3,5.2,41,0.00,,OVC017,0.00,VWS V14.01,2013-02-14 20:52:00,
2013-02-14 14:54:00,56.7,33.2,30.00,WNW,294,4.4,5.2,41,0.00,,OVC017,0.00,VWS V14.01,2013-02-14 20:54:00,
2013-02-14 14:56:00,56.7,33.2,30.01,North,1,2.8,8.1,41,0.00,,CLR,0.00,VWS V14.01,2013-02-14 20:56:00,
2013-02-14 14:58:00,56.8,33.4,30.00,NNW,338,5.0,7.6,41,0.00,,OVC017,0.00,VWS V14.01,2013-02-14 20:58:00,
2013-02-14 15:00:00,56.8,33.4,30.00,NW,306,3.3,5.2,41,0.00,,OVC017,0.00,VWS V14.01,2013-02-14 21:00:00,
2013-02-14 15:01:00,56.8,33.4,30.01,WNW,302,3.9,10.5,41,0.00,,CLR,0.00,VWS V14.01,2013-02-14 21:01:00,
2013-02-14 15:02:00,56.8,33.4,30.00,WNW,301,2.8,10.5,41,0.00,,OVC017,0.00,VWS V14.01,2013-02-14 21:02:00,
2013-02-14 15:04:00,56.7,33.2,30.00,WNW,293,10.3,10.8,41,0.00,,OVC017,0.00,VWS V14.01,2013-02-14 21:04:00,
2013-02-14 15:06:00,56.3,32.9,30.00,West,280,6.1,10.8,41,0.00,,OVC017,0.00,VWS V14.01,2013-02-14 21:06:00,
2013-02-14 15:07:00,56.3,32.9,30.01,WNW,291,3.9,7.0,41,0.00,,CLR,0.00,VWS V14.01,2013-02-14 21:07:00,
2013-02-14 15:08:00,56.3,32.9,30.00,North,353,6.1,6.4,41,0.00,,OVC017,0.00,VWS V14.01,2013-02-14 21:08:00,
2013-02-14 15:10:00,56.1,32.7,30.03,NW,324,5.0,9.9,41,0.00,,OVC017,0.00,VWS V14.01,2013-02-14 21:10:00,
2013-02-14 15:12:00,56.1,32.7,30.03,NW,306,3.3,7.6,41,0.00,,CLR,0.00,VWS V14.01,2013-02-14 21:12:00,
2013-02-14 15:14:00,56.1,32.7,30.03,WNW,298,4.4,7.0,41,0.00,,OVC017,0.00,VWS V14.01,2013-02-14 21:14:00,
2013-02-14 15:16:00,56.3,32.9,30.03,North,357,5.0,7.0,41,0.00,,OVC017,0.00,VWS V14.01,2013-02-14 21:16:00,
2013-02-14 15:17:00,56.3,32.9,30.03,NNW,339,0.0,7.0,41,0.00,,CLR,0.00,VWS V14.01,2013-02-14 21:17:00,
2013-02-14 15:18:00,56.5,33.0,30.03,North,3,5.0,5.2,41,0.00,,OVC017,0.00,VWS V14.01,2013-02-14 21:18:00,
2013-02-14 15:20:00,56.5,33.0,30.03,NNW,330,7.8,10.5,41,0.00,,OVC017,0.00,VWS V14.01,2013-02-14 21:20:00,
2013-02-14 15:22:00,56.5,33.0,30.03,WNW,301,0.0,9.3,41,0.00,,CLR,0.00,VWS V14.01,2013-02-14 21:22:00,
2013-02-14 15:24:00,56.5,33.0,30.03,WNW,284,2.8,6.4,41,0.00,,OVC017,0.00,VWS V14.01,2013-02-14 21:24:00,
2013-02-14 15:26:00,56.3,32.9,30.03,WNW,287,4.4,11.3,41,0.00,,OVC017,0.00,VWS V14.01,2013-02-14 21:26:00,
2013-02-14 15:27:00,56.3,32.9,30.03,WNW,290,5.0,11.3,41,0.00,,CLR,0.00,VWS V14.01,2013-02-14 21:27:00,
2013-02-14 15:28:00,56.3,32.9,30.03,NW,305,4.4,8.1,41,0.00,,OVC017,0.00,VWS V14.01,2013-02-14 21:28:00,
2013-02-14 15:30:00,56.3,32.9,30.03,NNW,341,0.0,6.4,41,0.00,,OVC017,0.00,VWS V14.01,2013-02-14 21:30:00,
2013-02-14 15:32:00,56.5,33.0,30.03,NW,306,9.4,9.9,41,0.00,,CLR,0.00,VWS V14.01,2013-02-14 21:32:00,
2013-02-14 15:34:00,56.7,33.2,30.03,NW,312,3.3,9.9,41,0.00,,OVC017,0.00,VWS V14.01,2013-02-14 21:34:00,
2013-02-14 15:36:00,56.8,32.5,30.03,NNW,340,0.0,10.8,40,0.00,,OVC017,0.00,VWS V14.01,2013-02-14 21:36:00,
2013-02-14 15:37:00,56.8,33.4,30.03,North,6,3.3,4.1,41,0.00,,CLR,0.00,VWS V14.01,2013-02-14 21:37:00,
2013-02-14 15:38:00,56.8,33.4,30.03,NW,311,3.9,4.1,41,0.00,,OVC017,0.00,VWS V14.01,2013-02-14 21:38:00,
2013-02-14 15:40:00,57.0,32.7,30.03,NW,323,9.4,9.9,40,0.00,,OVC017,0.00,VWS V14.01,2013-02-14 21:40:00,
2013-02-14 15:42:00,57.2,32.9,30.03,North,9,7.8,8.1,40,0.00,,CLR,0.00,VWS V14.01,2013-02-14 21:42:00,
2013-02-14 15:44:00,57.0,32.7,30.03,West,279,7.2,9.9,40,0.00,,OVC017,0.00,VWS V14.01,2013-02-14 21:44:00,
2013-02-14 15:46:00,56.8,32.5,30.03,West,276,6.7,7.6,40,0.00,,OVC017,0.00,VWS V14.01,2013-02-14 21:46:00,
2013-02-14 15:47:00,56.8,32.5,30.03,North,357,3.3,7.6,40,0.00,,CLR,0.00,VWS V14.01,2013-02-14 21:47:00,
2013-02-14 15:48:00,56.8,32.5,30.03,WNW,287,0.0,7.0,40,0.00,,OVC017,0.00,VWS V14.01,2013-02-14 21:48:00,
2013-02-14 15:50:00,56.8,32.5,30.03,WNW,290,4.4,7.6,40,0.00,,OVC017,0.00,VWS V14.01,2013-02-14 21:50:00,
2013-02-14 15:52:00,56.8,32.5,30.03,WNW,285,6.7,7.0,40,0.00,,CLR,0.00,VWS V14.01,2013-02-14 21:52:00,
2013-02-14 15:54:00,56.8,32.5,30.03,NW,312,6.7,10.5,40,0.00,,OVC017,0.00,VWS V14.01,2013-02-14 21:54:00,
2013-02-14 15:56:00,56.7,32.4,30.03,WSW,251,5.0,9.9,40,0.00,,OVC017,0.00,VWS V14.01,2013-02-14 21:56:00,
2013-02-14 15:57:00,56.7,32.4,30.03,NNW,342,7.8,8.7,40,0.00,,CLR,0.00,VWS V14.01,2013-02-14 21:57:00,
2013-02-14 15:58:00,56.5,32.2,30.03,NNW,337,3.9,8.1,40,0.00,,OVC017,0.00,VWS V14.01,2013-02-14 21:58:00,
2013-02-14 16:00:00,56.5,32.2,30.03,NW,326,4.4,9.3,40,0.00,,OVC017,0.00,VWS V14.01,2013-02-14 22:00:00,
2013-02-14 16:02:00,56.7,32.4,30.03,NW,322,7.2,7.6,40,0.00,,CLR,0.00,VWS V14.01,2013-02-14 22:02:00,
2013-02-14 16:04:00,56.7,32.4,30.03,North,353,5.0,8.1,40,0.00,,OVC017,0.00,VWS V14.01,2013-02-14 22:04:00,
2013-02-14 16:06:00,56.7,31.5,30.03,North,353,6.1,8.1,38,0.00,,OVC017,0.00,VWS V14.01,2013-02-14 22:06:00,
2013-02-14 16:07:00,56.7,32.4,30.03,WNW,297,3.9,7.6,40,0.00,,CLR,0.00,VWS V14.01,2013-02-14 22:07:00,
2013-02-14 16:08:00,56.7,32.4,30.03,WNW,296,0.0,6.4,40,0.00,,OVC017,0.00,VWS V14.01,2013-02-14 22:08:00,
2013-02-14 16:10:00,56.7,32.4,30.03,WNW,300,6.7,7.0,40,0.00,,OVC017,0.00,VWS V14.01,2013-02-14 22:10:00,
2013-02-14 16:12:00,56.5,32.2,30.03,NW,319,6.7,10.5,40,0.00,,CLR,0.00,VWS V14.01,2013-02-14 22:12:00,
2013-02-14 16:14:00,56.3,32.1,30.03,NNW,334,7.2,9.3,40,0.00,,OVC017,0.00,VWS V14.01,2013-02-14 22:14:00,
2013-02-14 16:16:00,56.1,31.9,30.03,WNW,297,3.3,7.6,40,0.00,,OVC017,0.00,VWS V14.01,2013-02-14 22:16:00,
2013-02-14 16:17:00,56.1,31.9,30.03,NW,316,7.2,9.3,40,0.00,,CLR,0.00,VWS V14.01,2013-02-14 22:17:00,
2013-02-14 16:18:00,56.1,31.9,30.03,NNW,327,6.7,9.3,40,0.00,,OVC017,0.00,VWS V14.01,2013-02-14 22:18:00,
2013-02-14 16:20:00,56.1,31.9,30.03,North,357,4.4,7.6,40,0.00,,OVC017,0.00,VWS V14.01,2013-02-14 22:20:00,
2013-02-14 16:22:00,56.1,31.9,30.03,NNE,31,7.8,9.9,40,0.00,,CLR,0.00,VWS V14.01,2013-02-14 22:22:00,
2013-02-14 16:24:00,56.1,31.9,30.03,NNE,30,7.8,9.9,40,0.00,,OVC017,0.00,VWS V14.01,2013-02-14 22:24:00,
2013-02-14 16:26:00,56.1,31.9,30.03,North,357,4.4,8.1,40,0.00,,OVC017,0.00,VWS V14.01,2013-02-14 22:26:00,
2013-02-14 16:27:00,56.1,31.9,30.03,NW,326,3.3,8.1,40,0.00,,CLR,0.00,VWS V14.01,2013-02-14 22:27:00,
2013-02-14 16:28:00,56.1,31.9,30.03,WNW,290,4.4,7.0,40,0.00,,OVC017,0.00,VWS V14.01,2013-02-14 22:28:00,
2013-02-14 16:30:00,55.9,31.7,30.03,North,357,4.4,8.1,40,0.00,,OVC017,0.00,VWS V14.01,2013-02-14 22:30:00,
2013-02-14 16:32:00,55.9,31.7,30.03,North,350,3.9,7.0,40,0.00,,CLR,0.00,VWS V14.01,2013-02-14 22:32:00,
2013-02-14 16:34:00,55.9,31.7,30.03,NNW,331,2.8,7.0,40,0.00,,OVC017,0.00,VWS V14.01,2013-02-14 22:34:00,
2013-02-14 16:36:00,55.9,31.7,30.03,WNW,285,8.3,9.9,40,0.00,,OVC017,0.00,VWS V14.01,2013-02-14 22:36:00,
2013-02-14 16:37:00,55.8,31.6,30.03,NW,307,7.8,14.2,40,0.00,,CLR,0.00,VWS V14.01,2013-02-14 22:37:00,
2013-02-14 16:38:00,55.8,31.6,30.03,NW,312,6.7,14.2,40,0.00,,OVC017,0.00,VWS V14.01,2013-02-14 22:38:00,
2013-02-14 16:40:00,55.6,31.4,30.03,NW,315,4.4,8.1,40,0.00,,OVC017,0.00,VWS V14.01,2013-02-14 22:40:00,
2013-02-14 16:42:00,55.2,31.1,30.03,North,6,10.8,11.3,40,0.00,,CLR,0.00,VWS V14.01,2013-02-14 22:42:00,
2013-02-14 16:44:00,55.2,31.1,30.03,North,0,3.3,11.3,40,0.00,,OVC017,0.00,VWS V14.01,2013-02-14 22:44:00,
2013-02-14 16:46:00,55.0,30.9,30.03,North,357,7.2,7.6,40,0.00,,OVC017,0.00,VWS V14.01,2013-02-14 22:46:00,
2013-02-14 16:47:00,55.0,30.9,30.03,North,1,3.9,10.8,40,0.00,,CLR,0.00,VWS V14.01,2013-02-14 22:47:00,
2013-02-14 16:48:00,55.0,30.9,30.03,NNW,342,4.4,10.8,40,0.00,,OVC017,0.00,VWS V14.01,2013-02-14 22:48:00,
2013-02-14 16:50:00,54.9,31.6,30.03,NE,37,3.9,7.6,41,0.00,,OVC017,0.00,VWS V14.01,2013-02-14 22:50:00,
2013-02-14 16:52:00,54.9,31.6,30.03,NNW,348,5.0,8.1,41,0.00,,CLR,0.00,VWS V14.01,2013-02-14 22:52:00,
2013-02-14 16:54:00,54.7,30.6,30.03,NNW,329,5.0,10.8,40,0.00,,OVC017,0.00,VWS V14.01,2013-02-14 22:54:00,
2013-02-14 16:56:00,54.7,30.6,30.03,North,357,4.4,7.0,40,0.00,,OVC017,0.00,VWS V14.01,2013-02-14 22:56:00,
2013-02-14 16:57:00,54.5,30.4,30.03,WNW,301,6.1,10.8,40,0.00,,CLR,0.00,VWS V14.01,2013-02-14 22:57:00,
2013-02-14 16:58:00,54.5,30.4,30.03,NW,310,6.7,10.8,40,0.00,,OVC017,0.00,VWS V14.01,2013-02-14 22:58:00,
2013-02-14 17:00:00,54.5,30.4,30.03,NW,307,7.8,10.8,40,0.00,,OVC017,0.00,VWS V14.01,2013-02-14 23:00:00,
2013-02-14 17:02:00,54.3,30.3,30.03,North,353,5.0,8.1,40,0.00,,CLR,0.00,VWS V14.01,2013-02-14 23:02:00,
2013-02-14 17:04:00,54.1,30.9,30.03,NNW,341,10.8,11.3,41,0.00,,OVC017,0.00,VWS V14.01,2013-02-14 23:04:00,
2013-02-14 17:06:00,54.0,30.0,30.03,North,11,4.4,11.3,40,0.00,,OVC017,0.00,VWS V14.01,2013-02-14 23:06:00,
2013-02-14 17:07:00,54.0,30.0,30.03,NNW,333,3.9,7.6,40,0.00,,CLR,0.00,VWS V14.01,2013-02-14 23:07:00,
2013-02-14 17:08:00,54.0,30.0,30.03,NW,316,3.9,7.6,40,0.00,,OVC017,0.00,VWS V14.01,2013-02-14 23:08:00,
2013-02-14 17:10:00,53.8,29.8,30.03,North,0,3.3,7.0,40,0.00,,OVC017,0.00,VWS V14.01,2013-02-14 23:10:00,
2013-02-14 17:12:00,53.8,30.6,30.03,NW,326,6.7,8.1,41,0.00,,CLR,0.00,VWS V14.01,2013-02-14 23:12:00,
2013-02-14 17:14:00,53.6,30.4,30.03,NNW,337,2.8,8.1,41,0.00,,OVC017,0.00,VWS V14.01,2013-02-14 23:14:00,
2013-02-14 17:16:00,53.6,30.4,30.03,NNE,15,6.7,7.0,41,0.00,,OVC017,0.00,VWS V14.01,2013-02-14 23:16:00,
2013-02-14 17:17:00,53.6,30.4,30.03,North,357,3.9,7.0,41,0.00,,CLR,0.00,VWS V14.01,2013-02-14 23:17:00,
2013-02-14 17:18:00,53.4,30.3,30.03,North,353,4.4,5.2,41,0.00,,OVC017,0.00,VWS V14.01,2013-02-14 23:18:00,
2013-02-14 17:20:00,53.4,30.3,30.03,NNW,343,6.7,7.6,41,0.00,,OVC017,0.00,VWS V14.01,2013-02-14 23:20:00,
2013-02-14 17:22:00,53.4,30.3,30.03,NNW,329,2.8,6.4,41,0.00,,CLR,0.00,VWS V14.01,2013-02-14 23:22:00,
2013-02-14 17:24:00,53.2,30.1,30.03,NW,310,3.3,5.2,41,0.00,,OVC017,0.00,VWS V14.01,2013-02-14 23:24:00,
2013-02-14 17:26:00,53.1,30.0,30.03,NW,320,3.3,7.6,41,0.00,,OVC017,0.00,VWS V14.01,2013-02-14 23:26:00,
2013-02-14 17:27:00,53.1,30.0,30.03,North,357,2.8,3.5,41,0.00,,CLR,0.00,VWS V14.01,2013-02-14 23:27:00,
2013-02-14 17:28:00,53.1,30.0,30.03,North,357,2.8,3.5,41,0.00,,OVC017,0.00,VWS V14.01,2013-02-14 23:28:00,
2013-02-14 17:30:00,53.1,30.0,30.03,WNW,303,5.0,5.8,41,0.00,,OVC017,0.00,VWS V14.01,2013-02-14 23:30:00,
2013-02-14 17:32:00,52.9,29.8,30.03,NW,317,6.7,8.1,41,0.00,,CLR,0.00,VWS V14.01,2013-02-14 23:32:00,
2013-02-14 17:34:00,52.9,29.8,30.03,WNW,287,4.4,7.0,41,0.00,,OVC017,0.00,VWS V14.01,2013-02-14 23:34:00,
2013-02-14 17:36:00,52.7,29.6,30.03,WNW,295,0.0,6.4,41,0.00,,OVC017,0.00,VWS V14.01,2013-02-14 23:36:00,
2013-02-14 17:38:00,52.7,29.6,30.03,North,4,0.0,4.1,41,0.00,,CLR,0.00,VWS V14.01,2013-02-14 23:38:00,
2013-02-14 17:40:00,52.5,29.5,30.03,West,268,3.9,7.0,41,0.00,,OVC017,0.00,VWS V14.01,2013-02-14 23:40:00,
2013-02-14 17:42:00,52.5,29.5,30.03,WNW,299,3.9,7.0,41,0.00,,OVC017,0.00,VWS V14.01,2013-02-14 23:42:00,
2013-02-14 17:43:00,52.5,29.5,30.03,North,9,5.0,7.0,41,0.00,,FEW120,0.00,VWS V14.01,2013-02-14 23:43:00,
2013-02-14 17:44:00,52.3,29.3,30.03,WNW,294,4.4,5.8,41,0.00,,OVC017,0.00,VWS V14.01,2013-02-14 23:44:00,
2013-02-14 17:46:00,52.3,29.3,30.03,NNW,346,5.0,7.6,41,0.00,,OVC017,0.00,VWS V14.01,2013-02-14 23:46:00,
2013-02-14 17:48:00,52.3,29.3,30.03,WNW,284,3.9,5.2,41,0.00,,FEW120,0.00,VWS V14.01,2013-02-14 23:48:00,
2013-02-14 17:50:00,52.2,29.1,30.03,NW,310,0.0,8.1,41,0.00,,OVC017,0.00,VWS V14.01,2013-02-14 23:50:00,
2013-02-14 17:52:00,52.2,29.1,30.03,NNW,329,3.9,7.6,41,0.00,,OVC017,0.00,VWS V14.01,2013-02-14 23:52:00,
2013-02-14 17:53:00,52.2,29.1,30.03,NW,313,4.4,7.0,41,0.00,,FEW120,0.00,VWS V14.01,2013-02-14 23:53:00,
2013-02-14 17:54:00,52.0,29.0,30.03,North,5,4.4,5.2,41,0.00,,OVC017,0.00,VWS V14.01,2013-02-14 23:54:00,
2013-02-14 17:56:00,52.0,29.0,30.03,NW,321,4.4,6.4,41,0.00,,OVC017,0.00,VWS V14.01,2013-02-14 23:56:00,
2013-02-14 17:58:00,52.0,29.0,30.03,NW,319,7.8,8.1,41,0.00,,FEW120,0.00,VWS V14.01,2013-02-14 23:58:00,
2013-02-14 18:00:00,51.8,28.8,30.03,NW,321,3.9,7.0,41,0.00,,OVC017,0.00,VWS V14.01,2013-02-15 00:00:00,
2013-02-14 18:02:00,51.8,28.8,30.03,WNW,285,3.3,6.4,41,0.00,,OVC017,0.00,VWS V14.01,2013-02-15 00:02:00,
2013-02-14 18:03:00,51.8,28.8,30.03,NNW,328,3.3,5.2,41,0.00,,CLR,0.00,VWS V14.01,2013-02-15 00:03:00,
2013-02-14 18:04:00,51.6,28.7,30.03,NNW,340,2.8,5.2,41,0.00,,OVC017,0.00,VWS V14.01,2013-02-15 00:04:00,
2013-02-14 18:06:00,51.6,28.7,30.03,WNW,295,3.9,8.1,41,0.00,,OVC017,0.00,VWS V14.01,2013-02-15 00:06:00,
2013-02-14 18:08:00,51.6,28.7,30.03,NW,310,3.3,5.2,41,0.00,,CLR,0.00,VWS V14.01,2013-02-15 00:08:00,
2013-02-14 18:10:00,51.4,28.5,30.06,NNW,348,0.0,3.5,41,0.00,,OVC017,0.00,VWS V14.01,2013-02-15 00:10:00,
2013-02-14 18:12:00,51.3,28.3,30.06,NW,308,3.3,4.7,41,0.00,,OVC017,0.00,VWS V14.01,2013-02-15 00:12:00,
2013-02-14 18:13:00,51.3,28.3,30.06,WNW,300,3.3,5.2,41,0.00,,CLR,0.00,VWS V14.01,2013-02-15 00:13:00,
2013-02-14 18:14:00,51.3,28.3,30.06,WNW,299,0.0,5.2,41,0.00,,OVC017,0.00,VWS V14.01,2013-02-15 00:14:00,
2013-02-14 18:16:00,51.1,29.0,30.06,NW,310,3.3,4.1,42,0.00,,OVC017,0.00,VWS V14.01,2013-02-15 00:16:00,
2013-02-14 18:18:00,50.9,28.8,30.06,NNW,328,0.0,4.1,42,0.00,,CLR,0.00,VWS V14.01,2013-02-15 00:18:00,
2013-02-14 18:20:00,50.9,28.8,30.06,NW,326,5.0,7.6,42,0.00,,OVC017,0.00,VWS V14.01,2013-02-15 00:20:00,
2013-02-14 18:22:00,50.7,28.6,30.06,NW,320,4.4,8.1,42,0.00,,OVC017,0.00,VWS V14.01,2013-02-15 00:22:00,
2013-02-14 18:23:00,50.7,28.6,30.06,NNW,327,5.0,8.1,42,0.00,,CLR,0.00,VWS V14.01,2013-02-15 00:23:00,
2013-02-14 18:24:00,50.7,28.6,30.06,NNW,338,3.9,8.1,42,0.00,,OVC017,0.00,VWS V14.01,2013-02-15 00:24:00,
2013-02-14 18:26:00,50.5,28.5,30.06,NW,320,3.3,5.2,42,0.00,,OVC017,0.00,VWS V14.01,2013-02-15 00:26:00,
2013-02-14 18:28:00,50.5,28.5,30.06,WNW,285,0.0,4.7,42,0.00,,CLR,0.00,VWS V14.01,2013-02-15 00:28:00,
2013-02-14 18:30:00,50.5,28.5,30.06,WNW,285,5.0,6.4,42,0.00,,OVC017,0.00,VWS V14.01,2013-02-15 00:30:00,
2013-02-14 18:32:00,50.4,28.3,30.06,West,274,3.3,7.6,42,0.00,,OVC017,0.00,VWS V14.01,2013-02-15 00:32:00,
2013-02-14 18:33:00,50.4,28.3,30.06,NW,322,5.0,8.7,42,0.00,,CLR,0.00,VWS V14.01,2013-02-15 00:33:00,
2013-02-14 18:34:00,50.2,28.1,30.06,NNW,337,3.3,8.7,42,0.00,,OVC017,0.00,VWS V14.01,2013-02-15 00:34:00,
2013-02-14 18:36:00,50.2,28.1,30.06,NW,326,5.0,5.2,42,0.00,,OVC017,0.00,VWS V14.01,2013-02-15 00:36:00,
2013-02-14 18:38:00,50.2,28.1,30.06,NNW,343,6.1,7.0,42,0.00,,FEW120,0.00,VWS V14.01,2013-02-15 00:38:00,
2013-02-14 18:40:00,50.0,28.0,30.06,NNW,339,3.3,7.6,42,0.00,,OVC017,0.00,VWS V14.01,2013-02-15 00:40:00,
2013-02-14 18:42:00,50.0,28.0,30.06,NW,325,6.7,7.0,42,0.00,,OVC017,0.00,VWS V14.01,2013-02-15 00:42:00,
2013-02-14 18:43:00,50.0,28.0,30.06,WNW,298,5.5,7.0,42,0.00,,FEW120,0.00,VWS V14.01,2013-02-15 00:43:00,
2013-02-14 18:44:00,49.8,28.6,30.06,NW,323,5.0,7.6,44,0.00,,OVC017,0.00,VWS V14.01,2013-02-15 00:44:00,
2013-02-14 18:46:00,49.8,28.6,30.06,WNW,298,3.9,5.2,44,0.00,,OVC017,0.00,VWS V14.01,2013-02-15 00:46:00,
2013-02-14 18:48:00,49.6,28.4,30.06,NW,325,0.0,6.4,44,0.00,,FEW120,0.00,VWS V14.01,2013-02-15 00:48:00,
2013-02-14 18:50:00,49.6,28.4,30.06,NW,319,3.3,6.4,44,0.00,,OVC017,0.00,VWS V14.01,2013-02-15 00:50:00,
2013-02-14 18:52:00,49.5,28.2,30.06,WNW,295,4.4,6.4,44,0.00,,OVC017,0.00,VWS V14.01,2013-02-15 00:52:00,
2013-02-14 18:53:00,49.3,28.1,30.06,NW,324,4.4,5.2,44,0.00,,FEW120,0.00,VWS V14.01,2013-02-15 00:53:00,
2013-02-14 18:54:00,49.3,28.1,30.06,NW,315,4.4,5.8,44,0.00,,OVC017,0.00,VWS V14.01,2013-02-15 00:54:00,
2013-02-14 18:56:00,49.1,27.9,30.06,NW,318,3.3,7.0,44,0.00,,OVC017,0.00,VWS V14.01,2013-02-15 00:56:00,
2013-02-14 18:58:00,48.9,27.7,30.06,NNW,338,3.9,7.6,44,0.00,,FEW120,0.00,VWS V14.01,2013-02-15 00:58:00,
2013-02-14 19:00:00,48.9,27.7,30.06,NNW,342,0.0,4.1,44,0.00,,OVC017,0.00,VWS V14.01,2013-02-15 01:00:00,
2013-02-14 19:02:00,48.7,28.3,30.06,North,7,4.4,7.6,45,0.00,,OVC017,0.00,VWS V14.01,2013-02-15 01:02:00,
2013-02-14 19:03:00,48.7,28.3,30.06,NW,308,5.0,6.4,45,0.00,,FEW120,0.00,VWS V14.01,2013-02-15 01:03:00,
2013-02-14 19:04:00,48.7,28.3,30.06,WNW,299,4.4,6.4,45,0.00,,OVC017,0.00,VWS V14.01,2013-02-15 01:04:00,
2013-02-14 19:06:00,48.6,28.1,30.06,WNW,298,7.2,7.6,45,0.00,,OVC017,0.00,VWS V14.01,2013-02-15 01:06:00,
2013-02-14 19:08:00,48.6,28.8,30.06,NNW,337,4.4,7.6,46,0.00,,FEW120,0.00,VWS V14.01,2013-02-15 01:08:00,
2013-02-14 19:10:00,48.4,28.7,30.09,NW,312,4.4,4.7,46,0.00,,OVC017,0.00,VWS V14.01,2013-02-15 01:10:00,
2013-02-14 19:12:00,48.4,28.7,30.09,WNW,299,3.3,8.1,46,0.00,,OVC017,0.00,VWS V14.01,2013-02-15 01:12:00,
2013-02-14 19:13:00,48.4,28.7,30.09,NNW,344,0.0,8.1,46,0.00,,FEW120,0.00,VWS V14.01,2013-02-15 01:13:00,
2013-02-14 19:14:00,48.4,28.7,30.09,WNW,301,0.0,6.4,46,0.00,,OVC017,0.00,VWS V14.01,2013-02-15 01:14:00,
2013-02-14 19:16:00,48.2,28.5,30.09,NW,320,4.4,5.8,46,0.00,,FEW120,0.00,VWS V14.01,2013-02-15 01:16:00,
2013-02-14 19:18:00,48.2,29.2,30.09,NNW,343,7.2,7.6,48,0.00,,FEW120,0.00,VWS V14.01,2013-02-15 01:18:00,
2013-02-14 19:20:00,48.2,29.2,30.09,WNW,301,3.3,7.6,48,0.00,,FEW120,0.00,VWS V14.01,2013-02-15 01:20:00,
2013-02-14 19:22:00,48.2,29.2,30.09,North,7,4.4,7.0,48,0.00,,FEW120,0.00,VWS V14.01,2013-02-15 01:22:00,
2013-02-14 19:24:00,48.2,29.2,30.09,NW,315,4.4,8.1,48,0.00,,FEW120,0.00,VWS V14.01,2013-02-15 01:24:00,
2013-02-14 19:26:00,48.4,30.0,30.09,NW,309,3.9,8.1,49,0.00,,FEW120,0.00,VWS V14.01,2013-02-15 01:26:00,
2013-02-14 19:28:00,48.4,30.0,30.09,NNW,340,4.4,7.6,49,0.00,,FEW120,0.00,VWS V14.01,2013-02-15 01:28:00,
2013-02-14 19:30:00,48.4,30.0,30.09,WNW,302,4.4,7.6,49,0.00,,FEW120,0.00,VWS V14.01,2013-02-15 01:30:00,
2013-02-14 19:32:00,48.4,30.0,30.09,North,5,6.1,7.6,49,0.00,,FEW120,0.00,VWS V14.01,2013-02-15 01:32:00,
2013-02-14 19:34:00,48.4,30.0,30.09,NW,324,2.8,7.6,49,0.00,,FEW120,0.00,VWS V14.01,2013-02-15 01:34:00,
2013-02-14 19:36:00,48.4,30.0,30.09,NW,304,3.9,6.4,49,0.00,,FEW120,0.00,VWS V14.01,2013-02-15 01:36:00,
2013-02-14 19:38:00,48.6,30.2,30.09,NNW,331,0.0,7.0,49,0.00,,FEW120,0.00,VWS V14.01,2013-02-15 01:38:00,
2013-02-14 19:40:00,48.6,30.2,30.09,NW,319,3.9,7.6,49,0.00,,FEW120,0.00,VWS V14.01,2013-02-15 01:40:00,
2013-02-14 19:42:00,48.6,30.2,30.09,North,357,5.0,8.1,49,0.00,,FEW120,0.00,VWS V14.01,2013-02-15 01:42:00,
2013-02-14 19:44:00,48.6,30.2,30.09,North,353,2.8,4.7,49,0.00,,FEW120,0.00,VWS V14.01,2013-02-15 01:44:00,
2013-02-14 19:46:00,48.6,30.2,30.09,North,9,5.0,5.2,49,0.00,,FEW120,0.00,VWS V14.01,2013-02-15 01:46:00,
2013-02-14 19:48:00,48.6,30.2,30.09,North,357,3.3,7.0,49,0.00,,FEW120,0.00,VWS V14.01,2013-02-15 01:48:00,
2013-02-14 19:50:00,48.6,30.2,30.09,NNW,333,3.9,5.2,49,0.00,,FEW120,0.00,VWS V14.01,2013-02-15 01:50:00,
2013-02-14 19:52:00,48.4,30.0,30.09,NNW,331,10.0,10.5,49,0.00,,FEW120,0.00,VWS V14.01,2013-02-15 01:52:00,
2013-02-14 19:54:00,48.4,30.0,30.09,North,357,2.8,10.5,49,0.00,,FEW120,0.00,VWS V14.01,2013-02-15 01:54:00,
2013-02-14 19:56:00,48.4,30.0,30.09,NW,307,4.4,7.6,49,0.00,,FEW120,0.00,VWS V14.01,2013-02-15 01:56:00,
2013-02-14 19:58:00,48.4,30.0,30.09,NNW,330,0.0,5.2,49,0.00,,FEW120,0.00,VWS V14.01,2013-02-15 01:58:00,
2013-02-14 20:00:00,48.2,29.9,30.09,NW,305,0.0,8.1,49,0.00,,FEW120,0.00,VWS V14.01,2013-02-15 02:00:00,
2013-02-14 20:02:00,48.2,29.9,30.09,NNE,14,4.4,7.6,49,0.00,,FEW120,0.00,VWS V14.01,2013-02-15 02:02:00,
2013-02-14 20:04:00,48.2,29.9,30.09,NNW,337,7.2,10.5,49,0.00,,FEW120,0.00,VWS V14.01,2013-02-15 02:04:00,
2013-02-14 20:06:00,48.2,29.9,30.09,North,7,2.8,8.1,49,0.00,,FEW120,0.00,VWS V14.01,2013-02-15 02:06:00,
2013-02-14 20:08:00,48.2,29.9,30.09,North,9,6.7,9.3,49,0.00,,FEW120,0.00,VWS V14.01,2013-02-15 02:08:00,
2013-02-14 20:10:00,48.2,29.9,30.09,WNW,298,3.9,7.6,49,0.00,,FEW120,0.00,VWS V14.01,2013-02-15 02:10:00,
2013-02-14 20:12:00,48.0,30.4,30.09,NNW,331,5.0,5.2,50,0.00,,FEW120,0.00,VWS V14.01,2013-02-15 02:12:00,
2013-02-14 20:14:00,48.0,30.4,30.09,WNW,300,7.2,7.6,50,0.00,,FEW120,0.00,VWS V14.01,2013-02-15 02:14:00,
2013-02-14 20:16:00,48.0,30.4,30.09,North,8,6.1,10.5,50,0.00,,FEW120,0.00,VWS V14.01,2013-02-15 02:16:00,
2013-02-14 20:18:00,48.0,30.4,30.09,NNW,334,5.0,8.1,50,0.00,,FEW120,0.00,VWS V14.01,2013-02-15 02:18:00,
2013-02-14 20:20:00,48.0,30.4,30.09,North,353,5.0,9.9,50,0.00,,FEW120,0.00,VWS V14.01,2013-02-15 02:20:00,
2013-02-14 20:22:00,48.0,30.4,30.09,North,357,6.1,6.4,50,0.00,,FEW120,0.00,VWS V14.01,2013-02-15 02:22:00,
2013-02-14 20:24:00,47.8,30.2,30.09,North,357,5.0,7.6,50,0.00,,FEW120,0.00,VWS V14.01,2013-02-15 02:24:00,
2013-02-14 20:26:00,47.8,30.2,30.12,North,4,3.9,8.1,50,0.00,,FEW120,0.00,VWS V14.01,2013-02-15 02:26:00,
2013-02-14 20:28:00,47.8,30.2,30.12,NNW,341,5.0,8.1,50,0.00,,FEW120,0.00,VWS V14.01,2013-02-15 02:28:00,
2013-02-14 20:30:00,47.7,30.7,30.12,North,357,7.2,8.1,51,0.00,,FEW120,0.00,VWS V14.01,2013-02-15 02:30:00,
2013-02-14 20:32:00,47.7,30.7,30.12,NNW,345,4.4,8.1,51,0.00,,FEW120,0.00,VWS V14.01,2013-02-15 02:32:00,
2013-02-14 20:34:00,47.7,30.7,30.12,North,3,5.0,7.6,51,0.00,,FEW120,0.00,VWS V14.01,2013-02-15 02:34:00,
2013-02-14 20:36:00,47.7,30.7,30.12,North,6,3.9,7.6,51,0.00,,FEW120,0.00,VWS V14.01,2013-02-15 02:36:00,
2013-02-14 20:38:00,47.5,30.5,30.12,NNW,338,3.3,6.4,51,0.00,,FEW120,0.00,VWS V14.01,2013-02-15 02:38:00,
2013-02-14 20:40:00,47.5,30.5,30.12,WNW,300,0.0,8.1,51,0.00,,FEW120,0.00,VWS V14.01,2013-02-15 02:40:00,
2013-02-14 20:42:00,47.5,30.5,30.12,NNW,334,5.0,5.2,51,0.00,,FEW120,0.00,VWS V14.01,2013-02-15 02:42:00,
2013-02-14 20:44:00,47.5,30.5,30.12,NW,310,5.0,8.1,51,0.00,,FEW120,0.00,VWS V14.01,2013-02-15 02:44:00,
2013-02-14 20:46:00,47.5,30.5,30.12,NW,312,4.4,5.2,51,0.00,,FEW120,0.00,VWS V14.01,2013-02-15 02:46:00,
2013-02-14 20:48:00,47.3,30.3,30.12,NW,323,5.0,8.1,51,0.00,,FEW120,0.00,VWS V14.01,2013-02-15 02:48:00,
2013-02-14 20:50:00,47.3,30.3,30.12,NNW,346,3.3,7.0,51,0.00,,FEW120,0.00,VWS V14.01,2013-02-15 02:50:00,
2013-02-14 20:52:00,47.3,30.3,30.12,NW,311,5.0,5.2,51,0.00,,FEW120,0.00,VWS V14.01,2013-02-15 02:52:00,
2013-02-14 20:54:00,47.3,30.3,30.12,NNW,331,0.0,5.2,51,0.00,,OVC017,0.00,VWS V14.01,2013-02-15 02:54:00,
2013-02-14 20:56:00,47.3,30.3,30.12,NW,322,5.0,9.9,51,0.00,,OVC017,0.00,VWS V14.01,2013-02-15 02:56:00,
2013-02-14 20:58:00,47.3,30.3,30.12,West,279,2.8,9.3,51,0.00,,OVC017,0.00,VWS V14.01,2013-02-15 02:58:00,
2013-02-14 21:00:00,47.3,30.3,30.12,NNW,338,7.8,8.1,51,0.00,,OVC017,0.00,VWS V14.01,2013-02-15 03:00:00,
2013-02-14 21:02:00,47.3,30.3,30.12,NW,317,7.8,11.3,51,0.00,,OVC017,0.00,VWS V14.01,2013-02-15 03:02:00,
2013-02-14 21:03:00,47.3,30.3,30.12,NNW,337,6.1,8.7,51,0.00,,FEW120,0.00,VWS V14.01,2013-02-15 03:03:00,
2013-02-14 21:04:00,47.3,30.3,30.12,NW,313,6.7,8.1,51,0.00,,OVC017,0.00,VWS V14.01,2013-02-15 03:04:00,
2013-02-14 21:06:00,47.3,30.3,30.12,WNW,294,6.7,11.3,51,0.00,,OVC017,0.00,VWS V14.01,2013-02-15 03:06:00,
2013-02-14 21:08:00,47.3,30.3,30.12,WNW,291,5.0,8.7,51,0.00,,OVC100,0.00,VWS V14.01,2013-02-15 03:08:00,
2013-02-14 21:10:00,47.3,30.3,30.12,WNW,298,0.0,7.0,51,0.00,,OVC017,0.00,VWS V14.01,2013-02-15 03:10:00,
2013-02-14 21:12:00,47.3,30.3,30.12,North,0,5.0,7.0,51,0.00,,OVC017,0.00,VWS V14.01,2013-02-15 03:12:00,
2013-02-14 21:13:00,47.1,30.2,30.12,North,353,6.7,7.0,51,0.00,,OVC100,0.00,VWS V14.01,2013-02-15 03:13:00,
2013-02-14 21:14:00,47.1,30.2,30.12,NNW,338,5.0,10.5,51,0.00,,OVC017,0.00,VWS V14.01,2013-02-15 03:14:00,
2013-02-14 21:16:00,47.1,30.2,30.12,NNE,31,3.9,7.6,51,0.00,,OVC017,0.00,VWS V14.01,2013-02-15 03:16:00,
2013-02-14 21:18:00,47.1,30.2,30.12,NW,305,4.4,9.9,51,0.00,,OVC090,0.00,VWS V14.01,2013-02-15 03:18:00,
2013-02-14 21:20:00,47.1,30.2,30.12,NE,48,5.0,12.5,51,0.00,,OVC017,0.00,VWS V14.01,2013-02-15 03:20:00,
2013-02-14 21:22:00,47.1,30.2,30.12,NW,316,4.4,10.5,51,0.00,,OVC017,0.00,VWS V14.01,2013-02-15 03:22:00,
2013-02-14 21:23:00,47.1,30.2,30.12,NW,307,5.5,10.5,51,0.00,,OVC090,0.00,VWS V14.01,2013-02-15 03:23:00,
2013-02-14 21:24:00,47.1,30.2,30.12,NNE,12,7.8,9.9,51,0.00,,OVC017,0.00,VWS V14.01,2013-02-15 03:24:00,
2013-02-14 21:26:00,47.1,30.2,30.12,North,357,3.3,11.3,51,0.00,,OVC017,0.00,VWS V14.01,2013-02-15 03:26:00,
2013-02-14 21:28:00,46.9,30.0,30.12,NW,320,6.7,8.7,51,0.00,,OVC090,0.00,VWS V14.01,2013-02-15 03:28:00,
2013-02-14 21:30:00,46.9,30.0,30.12,NNE,21,8.9,9.9,51,0.00,,OVC017,0.00,VWS V14.01,2013-02-15 03:30:00,
2013-02-14 21:32:00,46.9,30.0,30.12,North,6,6.1,9.9,51,0.00,,OVC017,0.00,VWS V14.01,2013-02-15 03:32:00,
2013-02-14 21:33:00,46.9,30.0,30.12,NNE,14,3.9,9.3,51,0.00,,OVC090,0.00,VWS V14.01,2013-02-15 03:33:00,
2013-02-14 21:34:00,46.9,30.0,30.12,North,350,10.8,11.3,51,0.00,,OVC017,0.00,VWS V14.01,2013-02-15 03:34:00,
2013-02-14 21:36:00,46.9,30.0,30.12,NNW,338,3.9,7.0,51,0.00,,OVC017,0.00,VWS V14.01,2013-02-15 03:36:00,
2013-02-14 21:38:00,46.8,29.8,30.12,NNW,341,5.0,10.5,51,0.00,,BKN085,0.00,VWS V14.01,2013-02-15 03:38:00,
2013-02-14 21:40:00,46.8,29.8,30.15,NNW,332,5.0,10.5,51,0.00,,OVC017,0.00,VWS V14.01,2013-02-15 03:40:00,
2013-02-14 21:42:00,46.8,29.8,30.15,North,357,3.3,8.1,51,0.00,,OVC017,0.00,VWS V14.01,2013-02-15 03:42:00,
2013-02-14 21:43:00,46.8,29.8,30.15,NW,319,5.0,9.9,51,0.00,,BKN085,0.00,VWS V14.01,2013-02-15 03:43:00,
2013-02-14 21:44:00,46.8,29.8,30.15,NE,39,3.3,9.9,51,0.00,,OVC017,0.00,VWS V14.01,2013-02-15 03:44:00,
2013-02-14 21:46:00,46.8,29.8,30.15,NW,306,3.9,10.8,51,0.00,,OVC017,0.00,VWS V14.01,2013-02-15 03:46:00,
2013-02-14 21:48:00,46.8,29.8,30.15,NNW,346,4.4,7.0,51,0.00,,BKN085,0.00,VWS V14.01,2013-02-15 03:48:00,
2013-02-14 21:50:00,46.8,29.8,30.15,NW,314,3.9,7.6,51,0.00,,OVC017,0.00,VWS V14.01,2013-02-15 03:50:00,
2013-02-14 21:52:00,46.6,29.7,30.15,NW,317,4.4,7.6,51,0.00,,OVC017,0.00,VWS V14.01,2013-02-15 03:52:00,
2013-02-14 21:53:00,46.6,29.7,30.15,NW,320,3.9,7.6,51,0.00,,BKN085,0.00,VWS V14.01,2013-02-15 03:53:00,
2013-02-14 21:54:00,46.6,29.7,30.15,NW,311,6.1,6.4,51,0.00,,OVC017,0.00,VWS V14.01,2013-02-15 03:54:00,
2013-02-14 21:56:00,46.6,29.7,30.15,NNW,328,0.0,7.0,51,0.00,,OVC017,0.00,VWS V14.01,2013-02-15 03:56:00,
2013-02-14 21:58:00,46.6,29.7,30.15,NW,324,2.8,4.7,51,0.00,,BKN085,0.00,VWS V14.01,2013-02-15 03:58:00,
2013-02-14 22:00:00,46.6,29.7,30.15,NNW,332,7.8,8.1,51,0.00,,OVC017,0.00,VWS V14.01,2013-02-15 04:00:00,
2013-02-14 22:02:00,46.6,29.7,30.15,NW,317,3.9,8.1,51,0.00,,OVC017,0.00,VWS V14.01,2013-02-15 04:02:00,
2013-02-14 22:03:00,46.4,29.5,30.15,North,357,7.2,7.6,51,0.00,,SCT090,0.00,VWS V14.01,2013-02-15 04:03:00,
2013-02-14 22:04:00,46.4,29.5,30.15,NW,312,3.9,7.6,51,0.00,,OVC017,0.00,VWS V14.01,2013-02-15 04:04:00,
2013-02-14 22:06:00,46.4,29.5,30.15,NW,326,3.3,7.0,51,0.00,,OVC017,0.00,VWS V14.01,2013-02-15 04:06:00,
2013-02-14 22:08:00,46.4,29.5,30.15,NW,325,5.0,7.6,51,0.00,,SCT090,0.00,VWS V14.01,2013-02-15 04:08:00,
2013-02-14 22:10:00,46.4,29.5,30.15,NNW,338,7.8,8.1,51,0.00,,OVC017,0.00,VWS V14.01,2013-02-15 04:10:00,
2013-02-14 22:12:00,46.4,29.5,30.15,NW,322,5.0,8.1,51,0.00,,OVC017,0.00,VWS V14.01,2013-02-15 04:12:00,
2013-02-14 22:13:00,46.4,30.1,30.15,NNW,327,7.8,8.1,53,0.00,,SCT090,0.00,VWS V14.01,2013-02-15 04:13:00,
2013-02-14 22:14:00,46.4,30.1,30.15,NNW,346,7.2,8.1,53,0.00,,OVC017,0.00,VWS V14.01,2013-02-15 04:14:00,
2013-02-14 22:16:00,46.4,30.1,30.15,North,353,7.2,8.1,53,0.00,,OVC017,0.00,VWS V14.01,2013-02-15 04:16:00,
2013-02-14 22:18:00,46.4,30.1,30.15,NNW,336,5.0,5.2,53,0.00,,SCT090,0.00,VWS V14.01,2013-02-15 04:18:00,
2013-02-14 22:20:00,46.4,30.1,30.15,NNW,339,3.3,8.1,53,0.00,,OVC017,0.00,VWS V14.01,2013-02-15 04:20:00,
2013-02-14 22:22:00,46.4,29.5,30.15,North,4,3.9,8.1,51,0.00,,OVC017,0.00,VWS V14.01,2013-02-15 04:22:00,
2013-02-14 22:23:00,46.4,29.5,30.15,NNW,345,3.9,8.1,51,0.00,,FEW070,0.00,VWS V14.01,2013-02-15 04:23:00,
2013-02-14 22:24:00,46.4,29.5,30.15,North,353,3.9,8.1,51,0.00,,OVC017,0.00,VWS V14.01,2013-02-15 04:24:00,
2013-02-14 22:26:00,46.4,29.5,30.15,NNW,334,0.0,9.9,51,0.00,,OVC017,0.00,VWS V14.01,2013-02-15 04:26:00,
2013-02-14 22:28:00,46.4,29.5,30.15,NW,306,7.2,10.8,51,0.00,,OVC017,0.00,VWS V14.01,2013-02-15 04:28:00,
2013-02-14 22:29:00,46.4,29.5,30.15,North,353,7.2,10.8,51,0.00,,FEW070,0.00,VWS V14.01,2013-02-15 04:29:00,
2013-02-14 22:30:00,46.4,29.5,30.15,North,0,6.1,8.1,51,0.00,,OVC017,0.00,VWS V14.01,2013-02-15 04:30:00,
2013-02-14 22:32:00,46.4,29.5,30.15,NNE,27,7.2,9.3,51,0.00,,OVC017,0.00,VWS V14.01,2013-02-15 04:32:00,
2013-02-14 22:34:00,46.4,29.5,30.15,NW,320,4.4,9.3,51,0.00,,FEW070,0.00,VWS V14.01,2013-02-15 04:34:00,
2013-02-14 22:36:00,46.4,29.5,30.15,NNW,330,6.7,8.1,51,0.00,,OVC017,0.00,VWS V14.01,2013-02-15 04:36:00,
2013-02-14 22:38:00,46.2,30.0,30.15,NNW,330,0.0,7.0,53,0.00,,OVC017,0.00,VWS V14.01,2013-02-15 04:38:00,
2013-02-14 22:39:00,46.2,30.0,30.15,NNW,338,4.4,6.4,53,0.00,,FEW070,0.00,VWS V14.01,2013-02-15 04:39:00,
2013-02-14 22:40:00,46.2,30.0,30.15,NNW,338,3.3,8.1,53,0.00,,OVC017,0.00,VWS V14.01,2013-02-15 04:40:00,
2013-02-14 22:42:00,46.2,30.0,30.15,WNW,302,6.1,7.6,53,0.00,,OVC017,0.00,VWS V14.01,2013-02-15 04:42:00,
2013-02-14 22:44:00,46.2,30.0,30.15,North,353,6.7,9.9,53,0.00,,SCT070,0.00,VWS V14.01,2013-02-15 04:44:00,
2013-02-14 22:46:00,46.0,29.8,30.15,NNW,340,10.0,10.5,53,0.00,,OVC017,0.00,VWS V14.01,2013-02-15 04:46:00,
2013-02-14 22:48:00,46.0,29.8,30.15,NNW,343,6.1,10.8,53,0.00,,OVC017,0.00,VWS V14.01,2013-02-15 04:48:00,
2013-02-14 22:49:00,46.0,29.2,30.15,NW,312,6.1,11.3,51,0.00,,SCT070,0.00,VWS V14.01,2013-02-15 04:49:00,
2013-02-14 22:50:00,46.0,29.2,30.15,NNW,332,9.4,11.3,51,0.00,,OVC017,0.00,VWS V14.01,2013-02-15 04:50:00,
2013-02-14 22:52:00,46.0,29.2,30.15,NNW,341,3.9,9.9,51,0.00,,OVC017,0.00,VWS V14.01,2013-02-15 04:52:00,
2013-02-14 22:54:00,46.0,29.2,30.15,NNW,348,5.0,9.3,51,0.00,,SCT070,0.00,VWS V14.01,2013-02-15 04:54:00,
2013-02-14 22:56:00,46.0,29.2,30.15,North,5,5.0,8.1,51,0.00,,OVC017,0.00,VWS V14.01,2013-02-15 04:56:00,
2013-02-14 22:58:00,45.9,29.0,30.15,North,10,3.3,9.9,51,0.00,,OVC017,0.00,VWS V14.01,2013-02-15 04:58:00,
2013-02-14 22:59:00,45.9,29.0,30.15,NNW,340,6.7,8.1,51,0.00,,SCT070,0.00,VWS V14.01,2013-02-15 04:59:00,
2013-02-14 23:00:00,45.9,29.0,30.15,North,3,5.0,7.6,51,0.00,,SCT070,0.00,VWS V14.01,2013-02-15 05:00:00,
2013-02-14 23:02:00,45.9,29.0,30.15,NW,324,3.3,5.2,51,0.00,,OVC017,0.00,VWS V14.01,2013-02-15 05:02:00,
2013-02-14 23:04:00,45.7,28.8,30.15,NNW,344,6.1,8.1,51,0.00,,OVC017,0.00,VWS V14.01,2013-02-15 05:04:00,
2013-02-14 23:06:00,45.5,28.7,30.15,NNW,334,3.3,8.1,51,0.00,,SCT090,0.00,VWS V14.01,2013-02-15 05:06:00,
2013-02-14 23:08:00,45.5,28.7,30.15,NW,313,4.4,9.9,51,0.00,,OVC017,0.00,VWS V14.01,2013-02-15 05:08:00,
2013-02-14 23:10:00,45.5,28.7,30.15,NNW,340,6.7,7.0,51,0.00,,OVC017,0.00,VWS V14.01,2013-02-15 05:10:00,
2013-02-14 23:11:00,45.3,28.5,30.15,NNW,331,4.4,7.0,51,0.00,,SCT090,0.00,VWS V14.01,2013-02-15 05:11:00,
2013-02-14 23:12:00,45.3,28.5,30.15,NNW,328,7.2,7.6,51,0.00,,OVC017,0.00,VWS V14.01,2013-02-15 05:12:00,
2013-02-14 23:14:00,45.3,28.5,30.15,WNW,292,5.0,8.1,51,0.00,,OVC017,0.00,VWS V14.01,2013-02-15 05:14:00,
2013-02-14 23:16:00,45.3,28.5,30.15,ENE,59,7.2,7.6,51,0.00,,SCT090,0.00,VWS V14.01,2013-02-15 05:16:00,
2013-02-14 23:18:00,45.3,28.5,30.15,North,350,4.4,8.1,51,0.00,,OVC017,0.00,VWS V14.01,2013-02-15 05:18:00,
2013-02-14 23:20:00,45.3,28.5,30.15,NW,323,6.1,6.4,51,0.00,,OVC017,0.00,VWS V14.01,2013-02-15 05:20:00,
2013-02-14 23:21:00,45.3,28.5,30.15,NNE,28,4.4,6.4,51,0.00,,FEW090,0.00,VWS V14.01,2013-02-15 05:21:00,
2013-02-14 23:22:00,45.1,28.3,30.15,NW,326,3.3,7.0,51,0.00,,OVC017,0.00,VWS V14.01,2013-02-15 05:22:00,
2013-02-14 23:24:00,45.1,28.3,30.15,NW,309,7.2,8.1,51,0.00,,OVC017,0.00,VWS V14.01,2013-02-15 05:24:00,
2013-02-14 23:26:00,45.1,28.3,30.15,NW,321,7.2,11.3,51,0.00,,FEW090,0.00,VWS V14.01,2013-02-15 05:26:00,
2013-02-14 23:28:00,45.1,28.3,30.15,NNW,340,6.7,9.9,51,0.00,,OVC017,0.00,VWS V14.01,2013-02-15 05:28:00,
2013-02-14 23:30:00,45.1,28.3,30.15,NW,307,10.0,14.2,51,0.00,,OVC017,0.00,VWS V14.01,2013-02-15 05:30:00,
2013-02-14 23:31:00,45.1,28.3,30.15,NW,312,4.4,10.5,51,0.00,,FEW090,0.00,VWS V14.01,2013-02-15 05:31:00,
2013-02-14 23:32:00,45.1,28.3,30.15,North,350,7.2,10.5,51,0.00,,OVC017,0.00,VWS V14.01,2013-02-15 05:32:00,
2013-02-14 23:34:00,45.1,28.3,30.15,NNW,331,5.5,7.6,51,0.00,,OVC017,0.00,VWS V14.01,2013-02-15 05:34:00,
2013-02-14 23:36:00,45.0,28.2,30.15,NNW,332,0.0,8.1,51,0.00,,FEW090,0.00,VWS V14.01,2013-02-15 05:36:00,
2013-02-14 23:38:00,44.8,28.0,30.15,NW,313,2.8,4.7,51,0.00,,OVC017,0.00,VWS V14.01,2013-02-15 05:38:00,
2013-02-14 23:40:00,44.8,28.0,30.15,WNW,288,4.4,6.4,51,0.00,,OVC017,0.00,VWS V14.01,2013-02-15 05:40:00,
2013-02-14 23:41:00,44.8,28.0,30.15,North,357,3.3,6.4,51,0.00,,CLR,0.00,VWS V14.01,2013-02-15 05:41:00,
2013-02-14 23:42:00,44.8,28.0,30.15,WNW,296,7.2,7.6,51,0.00,,OVC017,0.00,VWS V14.01,2013-02-15 05:42:00,
2013-02-14 23:44:00,44.6,27.8,30.15,NW,318,3.9,8.1,51,0.00,,OVC017,0.00,VWS V14.01,2013-02-15 05:44:00,
2013-02-14 23:46:00,44.6,27.8,30.15,NW,315,6.1,8.1,51,0.00,,CLR,0.00,VWS V14.01,2013-02-15 05:46:00,
2013-02-14 23:48:00,44.6,27.8,30.15,NW,309,5.0,6.4,51,0.00,,OVC017,0.00,VWS V14.01,2013-02-15 05:48:00,
2013-02-14 23:50:00,44.6,27.8,30.15,NNW,335,3.9,5.2,51,0.00,,OVC017,0.00,VWS V14.01,2013-02-15 05:50:00,
2013-02-14 23:51:00,44.4,27.7,30.15,NNW,335,7.8,8.1,51,0.00,,CLR,0.00,VWS V14.01,2013-02-15 05:51:00,
2013-02-14 23:52:00,44.4,27.7,30.15,NNW,340,6.1,8.1,51,0.00,,OVC017,0.00,VWS V14.01,2013-02-15 05:52:00,
2013-02-14 23:54:00,44.4,27.7,30.15,North,6,6.7,7.0,51,0.00,,OVC017,0.00,VWS V14.01,2013-02-15 05:54:00,
2013-02-14 23:56:00,44.2,27.5,30.15,North,0,4.4,7.0,51,0.00,,CLR,0.00,VWS V14.01,2013-02-15 05:56:00,
2013-02-14 23:58:00,44.2,27.5,30.15,WNW,287,2.8,7.6,51,0.00,,OVC017,0.00,VWS V14.01,2013-02-15 05:58:00,